Check out our new PWSWeather beta!
PWSweather.com
Personal Weather Stations
Station Observations
KD5LEN
Ktxnorth1, North Richland Hills, TX 76180

Ktxnorth1North Richland Hills, TX 76180

Lat: 32.885294, Lon: -97.236048

Elevation: 694

Station Type: Vantage Pro 2

http://www.atzer0.net/VWS/root/index.htm

High Low Average
Temperature 92.1°F33.4°C 71.0°F21.7°C 79.1°F26.2°C
Dew Point 76.9°F24.9°C 64.3°F17.9°C 70.7°F21.5°C
Winds 20.0 mph 32.2 kmh Calm Calm 3.0 mph S4.8 kmh S
Wind Gusts 26.0 mph41.8 kmh -- 7.0 mph11.3 kmh
Humidity 91% 56% 76%
Pressure 29.89 in1012.2 mb 29.77 in1008.1 mb -
Precipitation 0.00 in0.0 mm - -
Hour Temp Dew Point Humidity Winds Wind Gusts Pressure Precip Precip Rate Daily Precip Total
12:00 AM 74.9°F23.8°C 68.0°F20.0°C 79% 2.0 mph S3.2 kmh S 2.0 mph3.2 kmh 29.88 in1011.9 mb 0.00 in0.0 mm 0.00 in0.0 mm 0.00 in0.0 mm
12:02 AM 74.8°F23.8°C 67.9°F19.9°C 79% 3.0 mph S4.8 kmh S 3.0 mph4.8 kmh 29.88 in1011.9 mb 0.00 in0.0 mm 0.00 in0.0 mm 0.00 in0.0 mm
12:04 AM 74.9°F23.8°C 68.0°F20.0°C 79% 1.0 mph S1.6 kmh S 3.0 mph4.8 kmh 29.88 in1011.9 mb 0.00 in0.0 mm 0.00 in0.0 mm 0.00 in0.0 mm
12:06 AM 74.8°F23.8°C 68.2°F20.1°C 80% 2.0 mph S3.2 kmh S 3.0 mph4.8 kmh 29.88 in1011.9 mb 0.00 in0.0 mm 0.00 in0.0 mm 0.00 in0.0 mm
12:08 AM 74.7°F23.7°C 68.1°F20.1°C 80% 2.0 mph S3.2 kmh S 3.0 mph4.8 kmh 29.88 in1011.9 mb 0.00 in0.0 mm 0.00 in0.0 mm 0.00 in0.0 mm
12:10 AM 74.7°F23.7°C 68.1°F20.1°C 80% 2.0 mph S3.2 kmh S 3.0 mph4.8 kmh 29.88 in1011.9 mb 0.00 in0.0 mm 0.00 in0.0 mm 0.00 in0.0 mm
12:12 AM 74.7°F23.7°C 68.1°F20.1°C 80% 2.0 mph S3.2 kmh S 3.0 mph4.8 kmh 29.88 in1011.9 mb 0.00 in0.0 mm 0.00 in0.0 mm 0.00 in0.0 mm
12:14 AM 74.7°F23.7°C 68.1°F20.1°C 80% 2.0 mph S3.2 kmh S 3.0 mph4.8 kmh 29.88 in1011.9 mb 0.00 in0.0 mm 0.00 in0.0 mm 0.00 in0.0 mm
12:16 AM 74.6°F23.7°C 68.0°F20.0°C 80% 1.0 mph S1.6 kmh S 3.0 mph4.8 kmh 29.88 in1011.9 mb 0.00 in0.0 mm 0.00 in0.0 mm 0.00 in0.0 mm
12:18 AM 74.6°F23.7°C 68.0°F20.0°C 80% 1.0 mph S1.6 kmh S 3.0 mph4.8 kmh 29.88 in1011.9 mb 0.00 in0.0 mm 0.00 in0.0 mm 0.00 in0.0 mm
12:20 AM 74.4°F23.6°C 68.2°F20.1°C 81% 1.0 mph S1.6 kmh S 3.0 mph4.8 kmh 29.88 in1011.9 mb 0.00 in0.0 mm 0.00 in0.0 mm 0.00 in0.0 mm
12:22 AM 74.4°F23.6°C 68.2°F20.1°C 81% 1.0 mph S1.6 kmh S 3.0 mph4.8 kmh 29.88 in1011.9 mb 0.00 in0.0 mm 0.00 in0.0 mm 0.00 in0.0 mm
12:24 AM 74.4°F23.6°C 68.2°F20.1°C 81% 1.0 mph S1.6 kmh S 3.0 mph4.8 kmh 29.88 in1011.9 mb 0.00 in0.0 mm 0.00 in0.0 mm 0.00 in0.0 mm
12:26 AM 74.3°F23.5°C 68.1°F20.1°C 81% 1.0 mph S1.6 kmh S 3.0 mph4.8 kmh 29.88 in1011.9 mb 0.00 in0.0 mm 0.00 in0.0 mm 0.00 in0.0 mm
12:28 AM 74.3°F23.5°C 68.1°F20.1°C 81% Calm Calm 3.0 mph4.8 kmh 29.87 in1011.5 mb 0.00 in0.0 mm 0.00 in0.0 mm 0.00 in0.0 mm
12:30 AM 74.2°F23.4°C 68.0°F20.0°C 81% Calm Calm -- 29.87 in1011.5 mb 0.00 in0.0 mm 0.00 in0.0 mm 0.00 in0.0 mm
12:32 AM 74.2°F23.4°C 68.0°F20.0°C 81% Calm Calm 1.0 mph1.6 kmh 29.87 in1011.5 mb 0.00 in0.0 mm 0.00 in0.0 mm 0.00 in0.0 mm
12:34 AM 74.2°F23.4°C 68.0°F20.0°C 81% 1.0 mph S1.6 kmh S 1.0 mph1.6 kmh 29.87 in1011.5 mb 0.00 in0.0 mm 0.00 in0.0 mm 0.00 in0.0 mm
12:36 AM 74.1°F23.4°C 67.9°F19.9°C 81% 1.0 mph S1.6 kmh S 2.0 mph3.2 kmh 29.87 in1011.5 mb 0.00 in0.0 mm 0.00 in0.0 mm 0.00 in0.0 mm
12:38 AM 74.0°F23.3°C 67.8°F19.9°C 81% 2.0 mph S3.2 kmh S 2.0 mph3.2 kmh 29.87 in1011.5 mb 0.00 in0.0 mm 0.00 in0.0 mm 0.00 in0.0 mm
12:40 AM 74.0°F23.3°C 68.2°F20.1°C 82% 1.0 mph S1.6 kmh S 2.0 mph3.2 kmh 29.87 in1011.5 mb 0.00 in0.0 mm 0.00 in0.0 mm 0.00 in0.0 mm
12:42 AM 73.9°F23.3°C 68.1°F20.1°C 82% 1.0 mph S1.6 kmh S 2.0 mph3.2 kmh 29.87 in1011.5 mb 0.00 in0.0 mm 0.00 in0.0 mm 0.00 in0.0 mm
12:44 AM 73.9°F23.3°C 68.1°F20.1°C 82% 1.0 mph S1.6 kmh S 2.0 mph3.2 kmh 29.87 in1011.5 mb 0.00 in0.0 mm 0.00 in0.0 mm 0.00 in0.0 mm
12:46 AM 73.9°F23.3°C 68.1°F20.1°C 82% 1.0 mph S1.6 kmh S 2.0 mph3.2 kmh 29.87 in1011.5 mb 0.00 in0.0 mm 0.00 in0.0 mm 0.00 in0.0 mm
12:48 AM 73.8°F23.2°C 68.0°F20.0°C 82% 1.0 mph S1.6 kmh S 2.0 mph3.2 kmh 29.87 in1011.5 mb 0.00 in0.0 mm 0.00 in0.0 mm 0.00 in0.0 mm
12:50 AM 73.8°F23.2°C 68.0°F20.0°C 82% Calm Calm 2.0 mph3.2 kmh 29.87 in1011.5 mb 0.00 in0.0 mm 0.00 in0.0 mm 0.00 in0.0 mm
12:52 AM 73.8°F23.2°C 68.0°F20.0°C 82% Calm Calm 2.0 mph3.2 kmh 29.87 in1011.5 mb 0.00 in0.0 mm 0.00 in0.0 mm 0.00 in0.0 mm
12:54 AM 73.8°F23.2°C 68.0°F20.0°C 82% 2.0 mph S3.2 kmh S 2.0 mph3.2 kmh 29.87 in1011.5 mb 0.00 in0.0 mm 0.00 in0.0 mm 0.00 in0.0 mm
12:56 AM 73.8°F23.2°C 68.0°F20.0°C 82% 1.0 mph S1.6 kmh S 2.0 mph3.2 kmh 29.87 in1011.5 mb 0.00 in0.0 mm 0.00 in0.0 mm 0.00 in0.0 mm
12:58 AM 73.8°F23.2°C 68.0°F20.0°C 82% 1.0 mph S1.6 kmh S 2.0 mph3.2 kmh 29.87 in1011.5 mb 0.00 in0.0 mm 0.00 in0.0 mm 0.00 in0.0 mm
01:00 AM 73.7°F23.2°C 67.9°F19.9°C 82% 1.0 mph S1.6 kmh S 1.0 mph1.6 kmh 29.87 in1011.5 mb 0.00 in0.0 mm 0.00 in0.0 mm 0.00 in0.0 mm
01:02 AM 73.7°F23.2°C 67.9°F19.9°C 82% 1.0 mph S1.6 kmh S 2.0 mph3.2 kmh 29.87 in1011.5 mb 0.00 in0.0 mm 0.00 in0.0 mm 0.00 in0.0 mm
01:04 AM 73.7°F23.2°C 67.9°F19.9°C 82% 1.0 mph S1.6 kmh S 2.0 mph3.2 kmh 29.87 in1011.5 mb 0.00 in0.0 mm 0.00 in0.0 mm 0.00 in0.0 mm
01:06 AM 73.6°F23.1°C 67.8°F19.9°C 82% 1.0 mph S1.6 kmh S 2.0 mph3.2 kmh 29.87 in1011.5 mb 0.00 in0.0 mm 0.00 in0.0 mm 0.00 in0.0 mm
01:08 AM 73.5°F23.1°C 67.7°F19.8°C 82% 2.0 mph S3.2 kmh S 2.0 mph3.2 kmh 29.86 in1011.2 mb 0.00 in0.0 mm 0.00 in0.0 mm 0.00 in0.0 mm
01:10 AM 73.5°F23.1°C 67.7°F19.8°C 82% 1.0 mph S1.6 kmh S 3.0 mph4.8 kmh 29.86 in1011.2 mb 0.00 in0.0 mm 0.00 in0.0 mm 0.00 in0.0 mm
01:12 AM 73.5°F23.1°C 67.7°F19.8°C 82% Calm Calm 3.0 mph4.8 kmh 29.86 in1011.2 mb 0.00 in0.0 mm 0.00 in0.0 mm 0.00 in0.0 mm
01:14 AM 73.6°F23.1°C 67.8°F19.9°C 82% Calm Calm 3.0 mph4.8 kmh 29.86 in1011.2 mb 0.00 in0.0 mm 0.00 in0.0 mm 0.00 in0.0 mm
01:16 AM 73.6°F23.1°C 67.8°F19.9°C 82% Calm Calm 3.0 mph4.8 kmh 29.86 in1011.2 mb 0.00 in0.0 mm 0.00 in0.0 mm 0.00 in0.0 mm
01:18 AM 73.7°F23.2°C 67.9°F19.9°C 82% Calm Calm 3.0 mph4.8 kmh 29.86 in1011.2 mb 0.00 in0.0 mm 0.00 in0.0 mm 0.00 in0.0 mm
01:20 AM 73.7°F23.2°C 67.9°F19.9°C 82% Calm Calm 3.0 mph4.8 kmh 29.86 in1011.2 mb 0.00 in0.0 mm 0.00 in0.0 mm 0.00 in0.0 mm
01:22 AM 73.8°F23.2°C 68.0°F20.0°C 82% Calm Calm 3.0 mph4.8 kmh 29.86 in1011.2 mb 0.00 in0.0 mm 0.00 in0.0 mm 0.00 in0.0 mm
01:24 AM 73.8°F23.2°C 68.0°F20.0°C 82% 2.0 mph S3.2 kmh S 3.0 mph4.8 kmh 29.86 in1011.2 mb 0.00 in0.0 mm 0.00 in0.0 mm 0.00 in0.0 mm
01:26 AM 73.8°F23.2°C 68.0°F20.0°C 82% 2.0 mph S3.2 kmh S 3.0 mph4.8 kmh 29.86 in1011.2 mb 0.00 in0.0 mm 0.00 in0.0 mm 0.00 in0.0 mm
01:28 AM 73.8°F23.2°C 67.6°F19.8°C 81% 2.0 mph S3.2 kmh S 3.0 mph4.8 kmh 29.86 in1011.2 mb 0.00 in0.0 mm 0.00 in0.0 mm 0.00 in0.0 mm
01:30 AM 73.8°F23.2°C 67.6°F19.8°C 81% 1.0 mph S1.6 kmh S 2.0 mph3.2 kmh 29.86 in1011.2 mb 0.00 in0.0 mm 0.00 in0.0 mm 0.00 in0.0 mm
01:32 AM 73.8°F23.2°C 67.6°F19.8°C 81% 2.0 mph S3.2 kmh S 2.0 mph3.2 kmh 29.86 in1011.2 mb 0.00 in0.0 mm 0.00 in0.0 mm 0.00 in0.0 mm
01:34 AM 73.9°F23.3°C 67.7°F19.8°C 81% 2.0 mph S3.2 kmh S 2.0 mph3.2 kmh 29.85 in1010.8 mb 0.00 in0.0 mm 0.00 in0.0 mm 0.00 in0.0 mm
01:36 AM 73.8°F23.2°C 68.0°F20.0°C 82% 1.0 mph S1.6 kmh S 3.0 mph4.8 kmh 29.85 in1010.8 mb 0.00 in0.0 mm 0.00 in0.0 mm 0.00 in0.0 mm
01:38 AM 73.7°F23.2°C 67.9°F19.9°C 82% 2.0 mph S3.2 kmh S 3.0 mph4.8 kmh 29.86 in1011.2 mb 0.00 in0.0 mm 0.00 in0.0 mm 0.00 in0.0 mm
01:40 AM 73.7°F23.2°C 67.9°F19.9°C 82% 2.0 mph S3.2 kmh S 3.0 mph4.8 kmh 29.85 in1010.8 mb 0.00 in0.0 mm 0.00 in0.0 mm 0.00 in0.0 mm
01:42 AM 73.6°F23.1°C 67.8°F19.9°C 82% 2.0 mph S3.2 kmh S 3.0 mph4.8 kmh 29.85 in1010.8 mb 0.00 in0.0 mm 0.00 in0.0 mm 0.00 in0.0 mm
01:44 AM 73.5°F23.1°C 67.7°F19.8°C 82% 2.0 mph S3.2 kmh S 3.0 mph4.8 kmh 29.85 in1010.8 mb 0.00 in0.0 mm 0.00 in0.0 mm 0.00 in0.0 mm
01:46 AM 73.5°F23.1°C 67.7°F19.8°C 82% 2.0 mph S3.2 kmh S 3.0 mph4.8 kmh 29.85 in1010.8 mb 0.00 in0.0 mm 0.00 in0.0 mm 0.00 in0.0 mm
01:48 AM 73.4°F23.0°C 67.6°F19.8°C 82% 2.0 mph S3.2 kmh S 3.0 mph4.8 kmh 29.85 in1010.8 mb 0.00 in0.0 mm 0.00 in0.0 mm 0.00 in0.0 mm
01:50 AM 73.3°F22.9°C 67.5°F19.7°C 82% 1.0 mph S1.6 kmh S 3.0 mph4.8 kmh 29.85 in1010.8 mb 0.00 in0.0 mm 0.00 in0.0 mm 0.00 in0.0 mm
01:52 AM 73.3°F22.9°C 67.8°F19.9°C 83% 1.0 mph S1.6 kmh S 3.0 mph4.8 kmh 29.85 in1010.8 mb 0.00 in0.0 mm 0.00 in0.0 mm 0.00 in0.0 mm
01:54 AM 73.2°F22.9°C 67.7°F19.8°C 83% 1.0 mph S1.6 kmh S 3.0 mph4.8 kmh 29.85 in1010.8 mb 0.00 in0.0 mm 0.00 in0.0 mm 0.00 in0.0 mm
01:56 AM 73.1°F22.8°C 67.6°F19.8°C 83% 1.0 mph S1.6 kmh S 3.0 mph4.8 kmh 29.85 in1010.8 mb 0.00 in0.0 mm 0.00 in0.0 mm 0.00 in0.0 mm
01:58 AM 73.0°F22.8°C 67.5°F19.7°C 83% 2.0 mph S3.2 kmh S 3.0 mph4.8 kmh 29.85 in1010.8 mb 0.00 in0.0 mm 0.00 in0.0 mm 0.00 in0.0 mm
02:00 AM 72.9°F22.7°C 67.4°F19.7°C 83% 2.0 mph S3.2 kmh S 3.0 mph4.8 kmh 29.85 in1010.8 mb 0.00 in0.0 mm 0.00 in0.0 mm 0.00 in0.0 mm
02:02 AM 72.8°F22.7°C 67.3°F19.6°C 83% 2.0 mph S3.2 kmh S 3.0 mph4.8 kmh 29.85 in1010.8 mb 0.00 in0.0 mm 0.00 in0.0 mm 0.00 in0.0 mm
02:04 AM 72.8°F22.7°C 67.7°F19.8°C 84% 1.0 mph S1.6 kmh S 3.0 mph4.8 kmh 29.85 in1010.8 mb 0.00 in0.0 mm 0.00 in0.0 mm 0.00 in0.0 mm
02:06 AM 72.8°F22.7°C 67.7°F19.8°C 84% 2.0 mph S3.2 kmh S 3.0 mph4.8 kmh 29.85 in1010.8 mb 0.00 in0.0 mm 0.00 in0.0 mm 0.00 in0.0 mm
02:08 AM 72.7°F22.6°C 67.6°F19.8°C 84% 2.0 mph S3.2 kmh S 3.0 mph4.8 kmh 29.85 in1010.8 mb 0.00 in0.0 mm 0.00 in0.0 mm 0.00 in0.0 mm
02:10 AM 72.6°F22.6°C 67.5°F19.7°C 84% 1.0 mph S1.6 kmh S 3.0 mph4.8 kmh 29.85 in1010.8 mb 0.00 in0.0 mm 0.00 in0.0 mm 0.00 in0.0 mm
02:12 AM 72.6°F22.6°C 67.8°F19.9°C 85% 1.0 mph S1.6 kmh S 5.0 mph8.0 kmh 29.84 in1010.5 mb 0.00 in0.0 mm 0.00 in0.0 mm 0.00 in0.0 mm
02:14 AM 72.6°F22.6°C 67.8°F19.9°C 85% 2.0 mph S3.2 kmh S 5.0 mph8.0 kmh 29.85 in1010.8 mb 0.00 in0.0 mm 0.00 in0.0 mm 0.00 in0.0 mm
02:16 AM 72.6°F22.6°C 67.8°F19.9°C 85% 2.0 mph S3.2 kmh S 5.0 mph8.0 kmh 29.85 in1010.8 mb 0.00 in0.0 mm 0.00 in0.0 mm 0.00 in0.0 mm
02:18 AM 72.6°F22.6°C 67.8°F19.9°C 85% 1.0 mph S1.6 kmh S 5.0 mph8.0 kmh 29.85 in1010.8 mb 0.00 in0.0 mm 0.00 in0.0 mm 0.00 in0.0 mm
02:20 AM 72.5°F22.5°C 67.7°F19.8°C 85% 2.0 mph S3.2 kmh S 5.0 mph8.0 kmh 29.84 in1010.5 mb 0.00 in0.0 mm 0.00 in0.0 mm 0.00 in0.0 mm
02:22 AM 72.5°F22.5°C 67.7°F19.8°C 85% 1.0 mph S1.6 kmh S 5.0 mph8.0 kmh 29.84 in1010.5 mb 0.00 in0.0 mm 0.00 in0.0 mm 0.00 in0.0 mm
02:24 AM 72.5°F22.5°C 67.7°F19.8°C 85% Calm Calm 5.0 mph8.0 kmh 29.85 in1010.8 mb 0.00 in0.0 mm 0.00 in0.0 mm 0.00 in0.0 mm
02:26 AM 72.5°F22.5°C 67.7°F19.8°C 85% 2.0 mph S3.2 kmh S 5.0 mph8.0 kmh 29.85 in1010.8 mb 0.00 in0.0 mm 0.00 in0.0 mm 0.00 in0.0 mm
02:28 AM 72.5°F22.5°C 67.7°F19.8°C 85% 2.0 mph S3.2 kmh S 5.0 mph8.0 kmh 29.85 in1010.8 mb 0.00 in0.0 mm 0.00 in0.0 mm 0.00 in0.0 mm
02:30 AM 72.4°F22.4°C 67.6°F19.8°C 85% 2.0 mph S3.2 kmh S 5.0 mph8.0 kmh 29.85 in1010.8 mb 0.00 in0.0 mm 0.00 in0.0 mm 0.00 in0.0 mm
02:32 AM 72.4°F22.4°C 67.6°F19.8°C 85% Calm Calm 2.0 mph3.2 kmh 29.85 in1010.8 mb 0.00 in0.0 mm 0.00 in0.0 mm 0.00 in0.0 mm
02:34 AM 72.2°F22.3°C 67.5°F19.7°C 85% Calm Calm 2.0 mph3.2 kmh 29.85 in1010.8 mb 0.00 in0.0 mm 0.00 in0.0 mm 0.00 in0.0 mm
02:36 AM 72.3°F22.4°C 67.5°F19.7°C 85% 1.0 mph S1.6 kmh S 2.0 mph3.2 kmh 29.85 in1010.8 mb 0.00 in0.0 mm 0.00 in0.0 mm 0.00 in0.0 mm
02:38 AM 72.2°F22.3°C 67.5°F19.7°C 85% 1.0 mph S1.6 kmh S 2.0 mph3.2 kmh 29.85 in1010.8 mb 0.00 in0.0 mm 0.00 in0.0 mm 0.00 in0.0 mm
02:40 AM 72.2°F22.3°C 67.5°F19.7°C 85% 2.0 mph S3.2 kmh S 2.0 mph3.2 kmh 29.85 in1010.8 mb 0.00 in0.0 mm 0.00 in0.0 mm 0.00 in0.0 mm
02:42 AM 72.1°F22.3°C 67.4°F19.7°C 85% 2.0 mph S3.2 kmh S 2.0 mph3.2 kmh 29.85 in1010.8 mb 0.00 in0.0 mm 0.00 in0.0 mm 0.00 in0.0 mm
02:44 AM 72.0°F22.2°C 67.6°F19.8°C 86% 1.0 mph S1.6 kmh S 2.0 mph3.2 kmh 29.85 in1010.8 mb 0.00 in0.0 mm 0.00 in0.0 mm 0.00 in0.0 mm
02:46 AM 72.0°F22.2°C 67.6°F19.8°C 86% 1.0 mph S1.6 kmh S 2.0 mph3.2 kmh 29.85 in1010.8 mb 0.00 in0.0 mm 0.00 in0.0 mm 0.00 in0.0 mm
02:48 AM 72.0°F22.2°C 67.6°F19.8°C 86% 1.0 mph S1.6 kmh S 2.0 mph3.2 kmh 29.85 in1010.8 mb 0.00 in0.0 mm 0.00 in0.0 mm 0.00 in0.0 mm
02:50 AM 72.0°F22.2°C 67.6°F19.8°C 86% 2.0 mph S3.2 kmh S 2.0 mph3.2 kmh 29.84 in1010.5 mb 0.00 in0.0 mm 0.00 in0.0 mm 0.00 in0.0 mm
02:52 AM 72.0°F22.2°C 67.6°F19.8°C 86% 1.0 mph S1.6 kmh S 2.0 mph3.2 kmh 29.85 in1010.8 mb 0.00 in0.0 mm 0.00 in0.0 mm 0.00 in0.0 mm
02:54 AM 71.9°F22.2°C 67.5°F19.7°C 86% 2.0 mph S3.2 kmh S 2.0 mph3.2 kmh 29.85 in1010.8 mb 0.00 in0.0 mm 0.00 in0.0 mm 0.00 in0.0 mm
02:56 AM 71.9°F22.2°C 67.5°F19.7°C 86% 1.0 mph S1.6 kmh S 3.0 mph4.8 kmh 29.85 in1010.8 mb 0.00 in0.0 mm 0.00 in0.0 mm 0.00 in0.0 mm
02:58 AM 71.9°F22.2°C 67.5°F19.7°C 86% 2.0 mph S3.2 kmh S 3.0 mph4.8 kmh 29.85 in1010.8 mb 0.00 in0.0 mm 0.00 in0.0 mm 0.00 in0.0 mm
03:00 AM 71.9°F22.2°C 67.5°F19.7°C 86% Calm Calm -- 29.85 in1010.8 mb 0.00 in0.0 mm 0.00 in0.0 mm 0.00 in0.0 mm
03:02 AM 71.7°F22.1°C 67.3°F19.6°C 86% Calm Calm 1.0 mph1.6 kmh 29.85 in1010.8 mb 0.00 in0.0 mm 0.00 in0.0 mm 0.00 in0.0 mm
03:04 AM 71.6°F22.0°C 67.5°F19.7°C 87% Calm Calm 1.0 mph1.6 kmh 29.85 in1010.8 mb 0.00 in0.0 mm 0.00 in0.0 mm 0.00 in0.0 mm
03:06 AM 71.6°F22.0°C 67.5°F19.7°C 87% Calm Calm 1.0 mph1.6 kmh 29.85 in1010.8 mb 0.00 in0.0 mm 0.00 in0.0 mm 0.00 in0.0 mm
03:08 AM 71.5°F21.9°C 67.4°F19.7°C 87% 2.0 mph S3.2 kmh S 3.0 mph4.8 kmh 29.85 in1010.8 mb 0.00 in0.0 mm 0.00 in0.0 mm 0.00 in0.0 mm
03:10 AM 71.5°F21.9°C 67.4°F19.7°C 87% 2.0 mph S3.2 kmh S 3.0 mph4.8 kmh 29.85 in1010.8 mb 0.00 in0.0 mm 0.00 in0.0 mm 0.00 in0.0 mm
03:12 AM 71.6°F22.0°C 67.5°F19.7°C 87% 2.0 mph S3.2 kmh S 5.0 mph8.0 kmh 29.85 in1010.8 mb 0.00 in0.0 mm 0.00 in0.0 mm 0.00 in0.0 mm
03:14 AM 71.7°F22.1°C 67.6°F19.8°C 87% 3.0 mph S4.8 kmh S 5.0 mph8.0 kmh 29.85 in1010.8 mb 0.00 in0.0 mm 0.00 in0.0 mm 0.00 in0.0 mm
03:16 AM 71.8°F22.1°C 67.7°F19.8°C 87% 3.0 mph S4.8 kmh S 5.0 mph8.0 kmh 29.85 in1010.8 mb 0.00 in0.0 mm 0.00 in0.0 mm 0.00 in0.0 mm
03:18 AM 71.9°F22.2°C 67.8°F19.9°C 87% 5.0 mph S8.0 kmh S 5.0 mph8.0 kmh 29.85 in1010.8 mb 0.00 in0.0 mm 0.00 in0.0 mm 0.00 in0.0 mm
03:20 AM 71.9°F22.2°C 67.8°F19.9°C 87% 2.0 mph S3.2 kmh S 5.0 mph8.0 kmh 29.85 in1010.8 mb 0.00 in0.0 mm 0.00 in0.0 mm 0.00 in0.0 mm
03:22 AM 71.9°F22.2°C 67.8°F19.9°C 87% 2.0 mph S3.2 kmh S 5.0 mph8.0 kmh 29.85 in1010.8 mb 0.00 in0.0 mm 0.00 in0.0 mm 0.00 in0.0 mm
03:24 AM 71.9°F22.2°C 67.8°F19.9°C 87% 2.0 mph S3.2 kmh S 5.0 mph8.0 kmh 29.85 in1010.8 mb 0.00 in0.0 mm 0.00 in0.0 mm 0.00 in0.0 mm
03:26 AM 71.9°F22.2°C 67.8°F19.9°C 87% 1.0 mph S1.6 kmh S 5.0 mph8.0 kmh 29.85 in1010.8 mb 0.00 in0.0 mm 0.00 in0.0 mm 0.00 in0.0 mm
03:28 AM 71.9°F22.2°C 67.8°F19.9°C 87% 1.0 mph S1.6 kmh S 5.0 mph8.0 kmh 29.85 in1010.8 mb 0.00 in0.0 mm 0.00 in0.0 mm 0.00 in0.0 mm
03:30 AM 71.9°F22.2°C 67.8°F19.9°C 87% Calm Calm 1.0 mph1.6 kmh 29.85 in1010.8 mb 0.00 in0.0 mm 0.00 in0.0 mm 0.00 in0.0 mm
03:32 AM 71.8°F22.1°C 68.1°F20.1°C 88% 1.0 mph S1.6 kmh S 2.0 mph3.2 kmh 29.85 in1010.8 mb 0.00 in0.0 mm 0.00 in0.0 mm 0.00 in0.0 mm
03:34 AM 71.8°F22.1°C 68.1°F20.1°C 88% 2.0 mph S3.2 kmh S 3.0 mph4.8 kmh 29.85 in1010.8 mb 0.00 in0.0 mm 0.00 in0.0 mm 0.00 in0.0 mm
03:36 AM 71.8°F22.1°C 68.1°F20.1°C 88% 3.0 mph S4.8 kmh S 3.0 mph4.8 kmh 29.85 in1010.8 mb 0.00 in0.0 mm 0.00 in0.0 mm 0.00 in0.0 mm
03:38 AM 71.9°F22.2°C 68.2°F20.1°C 88% 2.0 mph S3.2 kmh S 3.0 mph4.8 kmh 29.85 in1010.8 mb 0.00 in0.0 mm 0.00 in0.0 mm 0.00 in0.0 mm
03:40 AM 71.9°F22.2°C 68.2°F20.1°C 88% 1.0 mph S1.6 kmh S 3.0 mph4.8 kmh 29.84 in1010.5 mb 0.00 in0.0 mm 0.00 in0.0 mm 0.00 in0.0 mm
03:42 AM 71.9°F22.2°C 68.2°F20.1°C 88% 2.0 mph S3.2 kmh S 3.0 mph4.8 kmh 29.84 in1010.5 mb 0.00 in0.0 mm 0.00 in0.0 mm 0.00 in0.0 mm
03:44 AM 71.9°F22.2°C 68.2°F20.1°C 88% 2.0 mph S3.2 kmh S 3.0 mph4.8 kmh 29.84 in1010.5 mb 0.00 in0.0 mm 0.00 in0.0 mm 0.00 in0.0 mm
03:46 AM 71.9°F22.2°C 68.2°F20.1°C 88% 2.0 mph S3.2 kmh S 3.0 mph4.8 kmh 29.84 in1010.5 mb 0.00 in0.0 mm 0.00 in0.0 mm 0.00 in0.0 mm
03:48 AM 72.0°F22.2°C 68.3°F20.2°C 88% 1.0 mph S1.6 kmh S 3.0 mph4.8 kmh 29.85 in1010.8 mb 0.00 in0.0 mm 0.00 in0.0 mm 0.00 in0.0 mm
03:50 AM 72.0°F22.2°C 68.3°F20.2°C 88% 1.0 mph S1.6 kmh S 3.0 mph4.8 kmh 29.85 in1010.8 mb 0.00 in0.0 mm 0.00 in0.0 mm 0.00 in0.0 mm
03:52 AM 71.9°F22.2°C 68.2°F20.1°C 88% Calm Calm 3.0 mph4.8 kmh 29.85 in1010.8 mb 0.00 in0.0 mm 0.00 in0.0 mm 0.00 in0.0 mm
03:54 AM 71.9°F22.2°C 68.2°F20.1°C 88% Calm Calm 3.0 mph4.8 kmh 29.85 in1010.8 mb 0.00 in0.0 mm 0.00 in0.0 mm 0.00 in0.0 mm
03:56 AM 71.8°F22.1°C 68.1°F20.1°C 88% 1.0 mph S1.6 kmh S 3.0 mph4.8 kmh 29.85 in1010.8 mb 0.00 in0.0 mm 0.00 in0.0 mm 0.00 in0.0 mm
03:58 AM 71.8°F22.1°C 68.1°F20.1°C 88% 2.0 mph S3.2 kmh S 3.0 mph4.8 kmh 29.85 in1010.8 mb 0.00 in0.0 mm 0.00 in0.0 mm 0.00 in0.0 mm
04:00 AM 71.7°F22.1°C 68.0°F20.0°C 88% 1.0 mph S1.6 kmh S 2.0 mph3.2 kmh 29.85 in1010.8 mb 0.00 in0.0 mm 0.00 in0.0 mm 0.00 in0.0 mm
04:02 AM 71.6°F22.0°C 67.9°F19.9°C 88% 1.0 mph S1.6 kmh S 3.0 mph4.8 kmh 29.85 in1010.8 mb 0.00 in0.0 mm 0.00 in0.0 mm 0.00 in0.0 mm
04:04 AM 71.6°F22.0°C 67.9°F19.9°C 88% Calm Calm 3.0 mph4.8 kmh 29.85 in1010.8 mb 0.00 in0.0 mm 0.00 in0.0 mm 0.00 in0.0 mm
04:06 AM 71.5°F21.9°C 68.1°F20.1°C 89% 1.0 mph S1.6 kmh S 3.0 mph4.8 kmh 29.85 in1010.8 mb 0.00 in0.0 mm 0.00 in0.0 mm 0.00 in0.0 mm
04:08 AM 71.5°F21.9°C 68.1°F20.1°C 89% 2.0 mph S3.2 kmh S 3.0 mph4.8 kmh 29.85 in1010.8 mb 0.00 in0.0 mm 0.00 in0.0 mm 0.00 in0.0 mm
04:10 AM 71.4°F21.9°C 68.0°F20.0°C 89% 2.0 mph S3.2 kmh S 3.0 mph4.8 kmh 29.85 in1010.8 mb 0.00 in0.0 mm 0.00 in0.0 mm 0.00 in0.0 mm
04:12 AM 71.4°F21.9°C 68.0°F20.0°C 89% 1.0 mph S1.6 kmh S 3.0 mph4.8 kmh 29.85 in1010.8 mb 0.00 in0.0 mm 0.00 in0.0 mm 0.00 in0.0 mm
04:14 AM 71.4°F21.9°C 68.0°F20.0°C 89% 2.0 mph S3.2 kmh S 3.0 mph4.8 kmh 29.85 in1010.8 mb 0.00 in0.0 mm 0.00 in0.0 mm 0.00 in0.0 mm
04:16 AM 71.3°F21.8°C 67.9°F19.9°C 89% 2.0 mph S3.2 kmh S 3.0 mph4.8 kmh 29.85 in1010.8 mb 0.00 in0.0 mm 0.00 in0.0 mm 0.00 in0.0 mm
04:18 AM 71.4°F21.9°C 68.0°F20.0°C 89% 1.0 mph S1.6 kmh S 3.0 mph4.8 kmh 29.85 in1010.8 mb 0.00 in0.0 mm 0.00 in0.0 mm 0.00 in0.0 mm
04:19 AM 71.3°F21.8°C 67.9°F19.9°C 89% 1.0 mph S1.6 kmh S 3.0 mph4.8 kmh 29.85 in1010.8 mb 0.00 in0.0 mm 0.00 in0.0 mm 0.00 in0.0 mm
04:22 AM 71.3°F21.8°C 67.9°F19.9°C 89% 2.0 mph S3.2 kmh S 3.0 mph4.8 kmh 29.85 in1010.8 mb 0.00 in0.0 mm 0.00 in0.0 mm 0.00 in0.0 mm
04:24 AM 71.4°F21.9°C 68.3°F20.2°C 90% 2.0 mph S3.2 kmh S 3.0 mph4.8 kmh 29.85 in1010.8 mb 0.00 in0.0 mm 0.00 in0.0 mm 0.00 in0.0 mm
04:26 AM 71.4°F21.9°C 68.3°F20.2°C 90% 1.0 mph S1.6 kmh S 3.0 mph4.8 kmh 29.85 in1010.8 mb 0.00 in0.0 mm 0.00 in0.0 mm 0.00 in0.0 mm
04:28 AM 71.4°F21.9°C 68.3°F20.2°C 90% 1.0 mph S1.6 kmh S 3.0 mph4.8 kmh 29.86 in1011.2 mb 0.00 in0.0 mm 0.00 in0.0 mm 0.00 in0.0 mm
04:30 AM 71.3°F21.8°C 68.2°F20.1°C 90% 1.0 mph S1.6 kmh S 3.0 mph4.8 kmh 29.86 in1011.2 mb 0.00 in0.0 mm 0.00 in0.0 mm 0.00 in0.0 mm
04:32 AM 71.3°F21.8°C 68.2°F20.1°C 90% 1.0 mph S1.6 kmh S 3.0 mph4.8 kmh 29.86 in1011.2 mb 0.00 in0.0 mm 0.00 in0.0 mm 0.00 in0.0 mm
04:34 AM 71.4°F21.9°C 68.3°F20.2°C 90% 1.0 mph S1.6 kmh S 3.0 mph4.8 kmh 29.86 in1011.2 mb 0.00 in0.0 mm 0.00 in0.0 mm 0.00 in0.0 mm
04:36 AM 71.3°F21.8°C 68.2°F20.1°C 90% 1.0 mph S1.6 kmh S 3.0 mph4.8 kmh 29.86 in1011.2 mb 0.00 in0.0 mm 0.00 in0.0 mm 0.00 in0.0 mm
04:38 AM 71.3°F21.8°C 68.2°F20.1°C 90% 2.0 mph S3.2 kmh S 3.0 mph4.8 kmh 29.86 in1011.2 mb 0.00 in0.0 mm 0.00 in0.0 mm 0.00 in0.0 mm
04:40 AM 71.3°F21.8°C 68.2°F20.1°C 90% 1.0 mph S1.6 kmh S 3.0 mph4.8 kmh 29.86 in1011.2 mb 0.00 in0.0 mm 0.00 in0.0 mm 0.00 in0.0 mm
04:42 AM 71.3°F21.8°C 68.2°F20.1°C 90% 1.0 mph S1.6 kmh S 3.0 mph4.8 kmh 29.86 in1011.2 mb 0.00 in0.0 mm 0.00 in0.0 mm 0.00 in0.0 mm
04:44 AM 71.3°F21.8°C 68.2°F20.1°C 90% 2.0 mph S3.2 kmh S 3.0 mph4.8 kmh 29.86 in1011.2 mb 0.00 in0.0 mm 0.00 in0.0 mm 0.00 in0.0 mm
04:46 AM 71.3°F21.8°C 68.2°F20.1°C 90% 1.0 mph S1.6 kmh S 3.0 mph4.8 kmh 29.86 in1011.2 mb 0.00 in0.0 mm 0.00 in0.0 mm 0.00 in0.0 mm
04:48 AM 71.3°F21.8°C 68.2°F20.1°C 90% 2.0 mph S3.2 kmh S 3.0 mph4.8 kmh 29.86 in1011.2 mb 0.00 in0.0 mm 0.00 in0.0 mm 0.00 in0.0 mm
04:50 AM 71.3°F21.8°C 68.2°F20.1°C 90% 2.0 mph S3.2 kmh S 3.0 mph4.8 kmh 29.86 in1011.2 mb 0.00 in0.0 mm 0.00 in0.0 mm 0.00 in0.0 mm
04:52 AM 71.3°F21.8°C 68.2°F20.1°C 90% 2.0 mph S3.2 kmh S 3.0 mph4.8 kmh 29.86 in1011.2 mb 0.00 in0.0 mm 0.00 in0.0 mm 0.00 in0.0 mm
04:54 AM 71.3°F21.8°C 68.2°F20.1°C 90% 2.0 mph S3.2 kmh S 3.0 mph4.8 kmh 29.86 in1011.2 mb 0.00 in0.0 mm 0.00 in0.0 mm 0.00 in0.0 mm
04:56 AM 71.3°F21.8°C 68.2°F20.1°C 90% 1.0 mph S1.6 kmh S 3.0 mph4.8 kmh 29.86 in1011.2 mb 0.00 in0.0 mm 0.00 in0.0 mm 0.00 in0.0 mm
04:58 AM 71.3°F21.8°C 68.2°F20.1°C 90% 1.0 mph S1.6 kmh S 3.0 mph4.8 kmh 29.86 in1011.2 mb 0.00 in0.0 mm 0.00 in0.0 mm 0.00 in0.0 mm
05:00 AM 71.3°F21.8°C 68.2°F20.1°C 90% 2.0 mph S3.2 kmh S 2.0 mph3.2 kmh 29.86 in1011.2 mb 0.00 in0.0 mm 0.00 in0.0 mm 0.00 in0.0 mm
05:02 AM 71.3°F21.8°C 68.2°F20.1°C 90% 2.0 mph S3.2 kmh S 2.0 mph3.2 kmh 29.86 in1011.2 mb 0.00 in0.0 mm 0.00 in0.0 mm 0.00 in0.0 mm
05:04 AM 71.3°F21.8°C 68.2°F20.1°C 90% 1.0 mph S1.6 kmh S 2.0 mph3.2 kmh 29.86 in1011.2 mb 0.00 in0.0 mm 0.00 in0.0 mm 0.00 in0.0 mm
05:06 AM 71.2°F21.8°C 68.1°F20.1°C 90% 1.0 mph S1.6 kmh S 2.0 mph3.2 kmh 29.86 in1011.2 mb 0.00 in0.0 mm 0.00 in0.0 mm 0.00 in0.0 mm
05:08 AM 71.2°F21.8°C 68.1°F20.1°C 90% 1.0 mph S1.6 kmh S 2.0 mph3.2 kmh 29.86 in1011.2 mb 0.00 in0.0 mm 0.00 in0.0 mm 0.00 in0.0 mm
05:10 AM 71.1°F21.7°C 68.0°F20.0°C 90% 2.0 mph S3.2 kmh S 2.0 mph3.2 kmh 29.86 in1011.2 mb 0.00 in0.0 mm 0.00 in0.0 mm 0.00 in0.0 mm
05:12 AM 71.1°F21.7°C 68.0°F20.0°C 90% 1.0 mph S1.6 kmh S 3.0 mph4.8 kmh 29.86 in1011.2 mb 0.00 in0.0 mm 0.00 in0.0 mm 0.00 in0.0 mm
05:14 AM 71.0°F21.7°C 67.9°F19.9°C 90% 3.0 mph S4.8 kmh S 3.0 mph4.8 kmh 29.86 in1011.2 mb 0.00 in0.0 mm 0.00 in0.0 mm 0.00 in0.0 mm
05:16 AM 71.0°F21.7°C 68.2°F20.1°C 91% 1.0 mph S1.6 kmh S 3.0 mph4.8 kmh 29.86 in1011.2 mb 0.00 in0.0 mm 0.00 in0.0 mm 0.00 in0.0 mm
05:18 AM 71.0°F21.7°C 68.2°F20.1°C 91% 1.0 mph S1.6 kmh S 3.0 mph4.8 kmh 29.86 in1011.2 mb 0.00 in0.0 mm 0.00 in0.0 mm 0.00 in0.0 mm
05:20 AM 71.0°F21.7°C 68.2°F20.1°C 91% 3.0 mph S4.8 kmh S 3.0 mph4.8 kmh 29.86 in1011.2 mb 0.00 in0.0 mm 0.00 in0.0 mm 0.00 in0.0 mm
05:22 AM 71.1°F21.7°C 68.3°F20.2°C 91% 3.0 mph S4.8 kmh S 3.0 mph4.8 kmh 29.87 in1011.5 mb 0.00 in0.0 mm 0.00 in0.0 mm 0.00 in0.0 mm
05:24 AM 71.1°F21.7°C 68.3°F20.2°C 91% 1.0 mph S1.6 kmh S 3.0 mph4.8 kmh 29.86 in1011.2 mb 0.00 in0.0 mm 0.00 in0.0 mm 0.00 in0.0 mm
05:26 AM 71.1°F21.7°C 68.3°F20.2°C 91% 1.0 mph S1.6 kmh S 3.0 mph4.8 kmh 29.86 in1011.2 mb 0.00 in0.0 mm 0.00 in0.0 mm 0.00 in0.0 mm
05:28 AM 71.1°F21.7°C 68.3°F20.2°C 91% 2.0 mph S3.2 kmh S 3.0 mph4.8 kmh 29.87 in1011.5 mb 0.00 in0.0 mm 0.00 in0.0 mm 0.00 in0.0 mm
05:30 AM 71.0°F21.7°C 68.2°F20.1°C 91% 1.0 mph S1.6 kmh S 3.0 mph4.8 kmh 29.87 in1011.5 mb 0.00 in0.0 mm 0.00 in0.0 mm 0.00 in0.0 mm
05:32 AM 71.1°F21.7°C 68.3°F20.2°C 91% 3.0 mph S4.8 kmh S 3.0 mph4.8 kmh 29.87 in1011.5 mb 0.00 in0.0 mm 0.00 in0.0 mm 0.00 in0.0 mm
05:34 AM 71.1°F21.7°C 68.3°F20.2°C 91% 1.0 mph S1.6 kmh S 3.0 mph4.8 kmh 29.87 in1011.5 mb 0.00 in0.0 mm 0.00 in0.0 mm 0.00 in0.0 mm
05:36 AM 71.2°F21.8°C 68.4°F20.2°C 91% 2.0 mph S3.2 kmh S 5.0 mph8.0 kmh 29.87 in1011.5 mb 0.00 in0.0 mm 0.00 in0.0 mm 0.00 in0.0 mm
05:38 AM 71.3°F21.8°C 68.5°F20.3°C 91% 1.0 mph S1.6 kmh S 5.0 mph8.0 kmh 29.87 in1011.5 mb 0.00 in0.0 mm 0.00 in0.0 mm 0.00 in0.0 mm
05:40 AM 71.3°F21.8°C 68.5°F20.3°C 91% 1.0 mph S1.6 kmh S 5.0 mph8.0 kmh 29.87 in1011.5 mb 0.00 in0.0 mm 0.00 in0.0 mm 0.00 in0.0 mm
05:42 AM 71.3°F21.8°C 68.5°F20.3°C 91% Calm Calm 5.0 mph8.0 kmh 29.87 in1011.5 mb 0.00 in0.0 mm 0.00 in0.0 mm 0.00 in0.0 mm
05:44 AM 71.3°F21.8°C 68.5°F20.3°C 91% Calm Calm 5.0 mph8.0 kmh 29.87 in1011.5 mb 0.00 in0.0 mm 0.00 in0.0 mm 0.00 in0.0 mm
05:46 AM 71.4°F21.9°C 68.6°F20.3°C 91% Calm Calm 5.0 mph8.0 kmh 29.87 in1011.5 mb 0.00 in0.0 mm 0.00 in0.0 mm 0.00 in0.0 mm
05:48 AM 71.4°F21.9°C 68.6°F20.3°C 91% Calm Calm 5.0 mph8.0 kmh 29.87 in1011.5 mb 0.00 in0.0 mm 0.00 in0.0 mm 0.00 in0.0 mm
05:50 AM 71.4°F21.9°C 68.6°F20.3°C 91% Calm Calm 5.0 mph8.0 kmh 29.87 in1011.5 mb 0.00 in0.0 mm 0.00 in0.0 mm 0.00 in0.0 mm
05:52 AM 71.4°F21.9°C 68.6°F20.3°C 91% Calm Calm 5.0 mph8.0 kmh 29.87 in1011.5 mb 0.00 in0.0 mm 0.00 in0.0 mm 0.00 in0.0 mm
05:54 AM 71.5°F21.9°C 68.7°F20.4°C 91% Calm Calm 5.0 mph8.0 kmh 29.87 in1011.5 mb 0.00 in0.0 mm 0.00 in0.0 mm 0.00 in0.0 mm
05:56 AM 71.6°F22.0°C 68.8°F20.4°C 91% 1.0 mph S1.6 kmh S 5.0 mph8.0 kmh 29.87 in1011.5 mb 0.00 in0.0 mm 0.00 in0.0 mm 0.00 in0.0 mm
05:58 AM 71.6°F22.0°C 68.8°F20.4°C 91% Calm Calm 5.0 mph8.0 kmh 29.87 in1011.5 mb 0.00 in0.0 mm 0.00 in0.0 mm 0.00 in0.0 mm
06:00 AM 71.7°F22.1°C 68.9°F20.5°C 91% Calm Calm 5.0 mph8.0 kmh 29.87 in1011.5 mb 0.00 in0.0 mm 0.00 in0.0 mm 0.00 in0.0 mm
06:02 AM 71.9°F22.2°C 69.1°F20.6°C 91% Calm Calm 1.0 mph1.6 kmh 29.88 in1011.9 mb 0.00 in0.0 mm 0.00 in0.0 mm 0.00 in0.0 mm
06:04 AM 72.0°F22.2°C 69.2°F20.7°C 91% 1.0 mph SSE1.6 kmh SSE 1.0 mph1.6 kmh 29.87 in1011.5 mb 0.00 in0.0 mm 0.00 in0.0 mm 0.00 in0.0 mm
06:06 AM 72.1°F22.3°C 69.3°F20.7°C 91% 1.0 mph SSE1.6 kmh SSE 2.0 mph3.2 kmh 29.87 in1011.5 mb 0.00 in0.0 mm 0.00 in0.0 mm 0.00 in0.0 mm
06:08 AM 72.2°F22.3°C 69.4°F20.8°C 91% 2.0 mph SSE3.2 kmh SSE 2.0 mph3.2 kmh 29.87 in1011.5 mb 0.00 in0.0 mm 0.00 in0.0 mm 0.00 in0.0 mm
06:10 AM 72.3°F22.4°C 69.5°F20.8°C 91% 1.0 mph SSE1.6 kmh SSE 2.0 mph3.2 kmh 29.88 in1011.9 mb 0.00 in0.0 mm 0.00 in0.0 mm 0.00 in0.0 mm
06:12 AM 72.3°F22.4°C 69.5°F20.8°C 91% 2.0 mph SE3.2 kmh SE 3.0 mph4.8 kmh 29.88 in1011.9 mb 0.00 in0.0 mm 0.00 in0.0 mm 0.00 in0.0 mm
06:14 AM 72.3°F22.4°C 69.2°F20.7°C 90% 2.0 mph SE3.2 kmh SE 3.0 mph4.8 kmh 29.88 in1011.9 mb 0.00 in0.0 mm 0.00 in0.0 mm 0.00 in0.0 mm
06:16 AM 72.4°F22.4°C 69.6°F20.9°C 91% 3.0 mph SSW4.8 kmh SSW 3.0 mph4.8 kmh 29.88 in1011.9 mb 0.00 in0.0 mm 0.00 in0.0 mm 0.00 in0.0 mm
06:18 AM 72.5°F22.5°C 69.4°F20.8°C 90% 1.0 mph SSW1.6 kmh SSW 3.0 mph4.8 kmh 29.88 in1011.9 mb 0.00 in0.0 mm 0.00 in0.0 mm 0.00 in0.0 mm
06:19 AM 72.6°F22.6°C 69.5°F20.8°C 90% 2.0 mph SSW3.2 kmh SSW 3.0 mph4.8 kmh 29.88 in1011.9 mb 0.00 in0.0 mm 0.00 in0.0 mm 0.00 in0.0 mm
06:21 AM 72.7°F22.6°C 69.6°F20.9°C 90% 2.0 mph SSW3.2 kmh SSW 3.0 mph4.8 kmh 29.88 in1011.9 mb 0.00 in0.0 mm 0.00 in0.0 mm 0.00 in0.0 mm
06:23 AM 72.8°F22.7°C 70.0°F21.1°C 91% 2.0 mph SSW3.2 kmh SSW 3.0 mph4.8 kmh 29.88 in1011.9 mb 0.00 in0.0 mm 0.00 in0.0 mm 0.00 in0.0 mm
06:26 AM 72.9°F22.7°C 69.8°F21.0°C 90% 2.0 mph SSW3.2 kmh SSW 3.0 mph4.8 kmh 29.88 in1011.9 mb 0.00 in0.0 mm 0.00 in0.0 mm 0.00 in0.0 mm
06:27 AM 73.0°F22.8°C 69.9°F21.1°C 90% 3.0 mph SSW4.8 kmh SSW 3.0 mph4.8 kmh 29.89 in1012.2 mb 0.00 in0.0 mm 0.00 in0.0 mm 0.00 in0.0 mm
06:30 AM 73.1°F22.8°C 70.0°F21.1°C 90% 1.0 mph SSW1.6 kmh SSW 3.0 mph4.8 kmh 29.89 in1012.2 mb 0.00 in0.0 mm 0.00 in0.0 mm 0.00 in0.0 mm
06:32 AM 73.3°F22.9°C 70.2°F21.2°C 90% 2.0 mph SSW3.2 kmh SSW 2.0 mph3.2 kmh 29.89 in1012.2 mb 0.00 in0.0 mm 0.00 in0.0 mm 0.00 in0.0 mm
06:34 AM 73.4°F23.0°C 70.3°F21.3°C 90% 2.0 mph SSW3.2 kmh SSW 3.0 mph4.8 kmh 29.89 in1012.2 mb 0.00 in0.0 mm 0.00 in0.0 mm 0.00 in0.0 mm
06:35 AM 73.5°F23.1°C 70.4°F21.3°C 90% 1.0 mph SSW1.6 kmh SSW 3.0 mph4.8 kmh 29.89 in1012.2 mb 0.00 in0.0 mm 0.00 in0.0 mm 0.00 in0.0 mm
06:37 AM 73.6°F23.1°C 70.5°F21.4°C 90% 1.0 mph SSW1.6 kmh SSW 3.0 mph4.8 kmh 29.89 in1012.2 mb 0.00 in0.0 mm 0.00 in0.0 mm 0.00 in0.0 mm
06:40 AM 73.8°F23.2°C 70.7°F21.5°C 90% 1.0 mph SSW1.6 kmh SSW 3.0 mph4.8 kmh 29.89 in1012.2 mb 0.00 in0.0 mm 0.00 in0.0 mm 0.00 in0.0 mm
06:42 AM 73.9°F23.3°C 70.8°F21.6°C 90% 2.0 mph S3.2 kmh S 3.0 mph4.8 kmh 29.89 in1012.2 mb 0.00 in0.0 mm 0.00 in0.0 mm 0.00 in0.0 mm
06:44 AM 74.1°F23.4°C 71.0°F21.7°C 90% 3.0 mph S4.8 kmh S 3.0 mph4.8 kmh 29.89 in1012.2 mb 0.00 in0.0 mm 0.00 in0.0 mm 0.00 in0.0 mm
06:46 AM 74.3°F23.5°C 71.2°F21.8°C 90% 1.0 mph SE1.6 kmh SE 3.0 mph4.8 kmh 29.88 in1011.9 mb 0.00 in0.0 mm 0.00 in0.0 mm 0.00 in0.0 mm
06:48 AM 74.4°F23.6°C 71.0°F21.7°C 89% 1.0 mph SE1.6 kmh SE 3.0 mph4.8 kmh 29.89 in1012.2 mb 0.00 in0.0 mm 0.00 in0.0 mm 0.00 in0.0 mm
06:49 AM 74.6°F23.7°C 71.2°F21.8°C 89% 1.0 mph SE1.6 kmh SE 3.0 mph4.8 kmh 29.89 in1012.2 mb 0.00 in0.0 mm 0.00 in0.0 mm 0.00 in0.0 mm
06:51 AM 74.8°F23.8°C 71.3°F21.8°C 89% Calm Calm 3.0 mph4.8 kmh 29.89 in1012.2 mb 0.00 in0.0 mm 0.00 in0.0 mm 0.00 in0.0 mm
06:53 AM 74.9°F23.8°C 71.4°F21.9°C 89% Calm Calm 3.0 mph4.8 kmh 29.89 in1012.2 mb 0.00 in0.0 mm 0.00 in0.0 mm 0.00 in0.0 mm
06:55 AM 75.1°F23.9°C 71.6°F22.0°C 89% Calm Calm 3.0 mph4.8 kmh 29.89 in1012.2 mb 0.00 in0.0 mm 0.00 in0.0 mm 0.00 in0.0 mm
06:57 AM 75.3°F24.1°C 71.5°F21.9°C 88% 1.0 mph SE1.6 kmh SE 3.0 mph4.8 kmh 29.89 in1012.2 mb 0.00 in0.0 mm 0.00 in0.0 mm 0.00 in0.0 mm
07:00 AM 75.5°F24.2°C 71.4°F21.9°C 87% 1.0 mph SE1.6 kmh SE 3.0 mph4.8 kmh 29.89 in1012.2 mb 0.00 in0.0 mm 0.00 in0.0 mm 0.00 in0.0 mm
07:02 AM 75.7°F24.3°C 71.6°F22.0°C 87% 2.0 mph SE3.2 kmh SE 2.0 mph3.2 kmh 29.89 in1012.2 mb 0.00 in0.0 mm 0.00 in0.0 mm 0.00 in0.0 mm
07:04 AM 75.8°F24.3°C 71.7°F22.1°C 87% 1.0 mph SE1.6 kmh SE 2.0 mph3.2 kmh 29.89 in1012.2 mb 0.00 in0.0 mm 0.00 in0.0 mm 0.00 in0.0 mm
07:06 AM 75.9°F24.4°C 71.8°F22.1°C 87% Calm Calm 2.0 mph3.2 kmh 29.89 in1012.2 mb 0.00 in0.0 mm 0.00 in0.0 mm 0.00 in0.0 mm
07:08 AM 76.0°F24.4°C 71.9°F22.2°C 87% 2.0 mph SE3.2 kmh SE 2.0 mph3.2 kmh 29.89 in1012.2 mb 0.00 in0.0 mm 0.00 in0.0 mm 0.00 in0.0 mm
07:10 AM 76.1°F24.5°C 71.6°F22.0°C 86% Calm Calm 2.0 mph3.2 kmh 29.89 in1012.2 mb 0.00 in0.0 mm 0.00 in0.0 mm 0.00 in0.0 mm
07:12 AM 76.2°F24.6°C 71.7°F22.1°C 86% 1.0 mph SE1.6 kmh SE 2.0 mph3.2 kmh 29.89 in1012.2 mb 0.00 in0.0 mm 0.00 in0.0 mm 0.00 in0.0 mm
07:14 AM 76.3°F24.6°C 71.8°F22.1°C 86% 1.0 mph SE1.6 kmh SE 2.0 mph3.2 kmh 29.89 in1012.2 mb 0.00 in0.0 mm 0.00 in0.0 mm 0.00 in0.0 mm
07:16 AM 76.3°F24.6°C 71.8°F22.1°C 86% Calm Calm 2.0 mph3.2 kmh 29.89 in1012.2 mb 0.00 in0.0 mm 0.00 in0.0 mm 0.00 in0.0 mm
07:18 AM 76.6°F24.8°C 72.1°F22.3°C 86% Calm Calm 2.0 mph3.2 kmh 29.89 in1012.2 mb 0.00 in0.0 mm 0.00 in0.0 mm 0.00 in0.0 mm
07:20 AM 76.9°F24.9°C 72.4°F22.4°C 86% Calm Calm 2.0 mph3.2 kmh 29.89 in1012.2 mb 0.00 in0.0 mm 0.00 in0.0 mm 0.00 in0.0 mm
07:22 AM 77.2°F25.1°C 72.7°F22.6°C 86% 1.0 mph SE1.6 kmh SE 2.0 mph3.2 kmh 29.89 in1012.2 mb 0.00 in0.0 mm 0.00 in0.0 mm 0.00 in0.0 mm
07:24 AM 77.4°F25.2°C 72.5°F22.5°C 85% Calm Calm 2.0 mph3.2 kmh 29.89 in1012.2 mb 0.00 in0.0 mm 0.00 in0.0 mm 0.00 in0.0 mm
07:26 AM 77.6°F25.3°C 72.4°F22.4°C 84% Calm Calm 2.0 mph3.2 kmh 29.89 in1012.2 mb 0.00 in0.0 mm 0.00 in0.0 mm 0.00 in0.0 mm
07:28 AM 77.7°F25.4°C 72.5°F22.5°C 84% Calm Calm 2.0 mph3.2 kmh 29.89 in1012.2 mb 0.00 in0.0 mm 0.00 in0.0 mm 0.00 in0.0 mm
07:30 AM 77.9°F25.5°C 72.7°F22.6°C 84% 1.0 mph SE1.6 kmh SE 1.0 mph1.6 kmh 29.89 in1012.2 mb 0.00 in0.0 mm 0.00 in0.0 mm 0.00 in0.0 mm
07:32 AM 78.1°F25.6°C 72.9°F22.7°C 84% Calm Calm 1.0 mph1.6 kmh 29.89 in1012.2 mb 0.00 in0.0 mm 0.00 in0.0 mm 0.00 in0.0 mm
07:34 AM 78.3°F25.7°C 73.1°F22.8°C 84% Calm Calm 1.0 mph1.6 kmh 29.89 in1012.2 mb 0.00 in0.0 mm 0.00 in0.0 mm 0.00 in0.0 mm
07:36 AM 78.4°F25.8°C 72.8°F22.7°C 83% 2.0 mph SE3.2 kmh SE 2.0 mph3.2 kmh 29.89 in1012.2 mb 0.00 in0.0 mm 0.00 in0.0 mm 0.00 in0.0 mm
07:38 AM 78.5°F25.8°C 72.9°F22.7°C 83% 1.0 mph SE1.6 kmh SE 2.0 mph3.2 kmh 29.89 in1012.2 mb 0.00 in0.0 mm 0.00 in0.0 mm 0.00 in0.0 mm
07:40 AM 78.7°F25.9°C 73.1°F22.8°C 83% 1.0 mph SE1.6 kmh SE 2.0 mph3.2 kmh 29.89 in1012.2 mb 0.00 in0.0 mm 0.00 in0.0 mm 0.00 in0.0 mm
07:42 AM 78.7°F25.9°C 73.1°F22.8°C 83% Calm Calm 2.0 mph3.2 kmh 29.89 in1012.2 mb 0.00 in0.0 mm 0.00 in0.0 mm 0.00 in0.0 mm
07:44 AM 78.9°F26.1°C 73.3°F22.9°C 83% Calm Calm 2.0 mph3.2 kmh 29.89 in1012.2 mb 0.00 in0.0 mm 0.00 in0.0 mm 0.00 in0.0 mm
07:46 AM 79.1°F26.2°C 73.5°F23.1°C 83% 1.0 mph SE1.6 kmh SE 2.0 mph3.2 kmh 29.89 in1012.2 mb 0.00 in0.0 mm 0.00 in0.0 mm 0.00 in0.0 mm
07:48 AM 79.2°F26.2°C 73.2°F22.9°C 82% 1.0 mph SE1.6 kmh SE 2.0 mph3.2 kmh 29.89 in1012.2 mb 0.00 in0.0 mm 0.00 in0.0 mm 0.00 in0.0 mm
07:50 AM 79.2°F26.2°C 73.2°F22.9°C 82% 1.0 mph SE1.6 kmh SE 2.0 mph3.2 kmh 29.88 in1011.9 mb 0.00 in0.0 mm 0.00 in0.0 mm 0.00 in0.0 mm
07:52 AM 79.3°F26.3°C 73.3°F22.9°C 82% 1.0 mph SE1.6 kmh SE 2.0 mph3.2 kmh 29.89 in1012.2 mb 0.00 in0.0 mm 0.00 in0.0 mm 0.00 in0.0 mm
07:54 AM 79.4°F26.3°C 73.4°F23.0°C 82% 2.0 mph SE3.2 kmh SE 2.0 mph3.2 kmh 29.89 in1012.2 mb 0.00 in0.0 mm 0.00 in0.0 mm 0.00 in0.0 mm
07:56 AM 79.3°F26.3°C 73.3°F22.9°C 82% 1.0 mph SSW1.6 kmh SSW 4.0 mph6.4 kmh 29.89 in1012.2 mb 0.00 in0.0 mm 0.00 in0.0 mm 0.00 in0.0 mm
07:58 AM 79.3°F26.3°C 73.3°F22.9°C 82% 1.0 mph SW1.6 kmh SW 4.0 mph6.4 kmh 29.89 in1012.2 mb 0.00 in0.0 mm 0.00 in0.0 mm 0.00 in0.0 mm
08:00 AM 79.2°F26.2°C 73.2°F22.9°C 82% 1.0 mph SW1.6 kmh SW 1.0 mph1.6 kmh 29.88 in1011.9 mb 0.00 in0.0 mm 0.00 in0.0 mm 0.00 in0.0 mm
08:02 AM 79.2°F26.2°C 73.2°F22.9°C 82% 2.0 mph SW3.2 kmh SW 2.0 mph3.2 kmh 29.89 in1012.2 mb 0.00 in0.0 mm 0.00 in0.0 mm 0.00 in0.0 mm
08:04 AM 79.2°F26.2°C 73.2°F22.9°C 82% 3.0 mph SW4.8 kmh SW 4.0 mph6.4 kmh 29.89 in1012.2 mb 0.00 in0.0 mm 0.00 in0.0 mm 0.00 in0.0 mm
08:06 AM 79.3°F26.3°C 73.3°F22.9°C 82% 1.0 mph SW1.6 kmh SW 4.0 mph6.4 kmh 29.89 in1012.2 mb 0.00 in0.0 mm 0.00 in0.0 mm 0.00 in0.0 mm
08:08 AM 79.3°F26.3°C 73.3°F22.9°C 82% 3.0 mph WSW4.8 kmh WSW 5.0 mph8.0 kmh 29.89 in1012.2 mb 0.00 in0.0 mm 0.00 in0.0 mm 0.00 in0.0 mm
08:10 AM 79.5°F26.4°C 73.5°F23.1°C 82% 5.0 mph WSW8.0 kmh WSW 5.0 mph8.0 kmh 29.89 in1012.2 mb 0.00 in0.0 mm 0.00 in0.0 mm 0.00 in0.0 mm
08:12 AM 79.6°F26.4°C 73.6°F23.1°C 82% 2.0 mph SW3.2 kmh SW 5.0 mph8.0 kmh 29.89 in1012.2 mb 0.00 in0.0 mm 0.00 in0.0 mm 0.00 in0.0 mm
08:14 AM 79.5°F26.4°C 73.5°F23.1°C 82% 3.0 mph SSW4.8 kmh SSW 7.0 mph11.3 kmh 29.88 in1011.9 mb 0.00 in0.0 mm 0.00 in0.0 mm 0.00 in0.0 mm
08:16 AM 79.6°F26.4°C 73.6°F23.1°C 82% 1.0 mph SW1.6 kmh SW 7.0 mph11.3 kmh 29.88 in1011.9 mb 0.00 in0.0 mm 0.00 in0.0 mm 0.00 in0.0 mm
08:18 AM 79.6°F26.4°C 73.6°F23.1°C 82% 4.0 mph S6.4 kmh S 7.0 mph11.3 kmh 29.89 in1012.2 mb 0.00 in0.0 mm 0.00 in0.0 mm 0.00 in0.0 mm
08:20 AM 79.8°F26.6°C 73.8°F23.2°C 82% 3.0 mph SW4.8 kmh SW 7.0 mph11.3 kmh 29.88 in1011.9 mb 0.00 in0.0 mm 0.00 in0.0 mm 0.00 in0.0 mm
08:22 AM 79.9°F26.6°C 73.9°F23.3°C 82% 6.0 mph SW9.7 kmh SW 7.0 mph11.3 kmh 29.89 in1012.2 mb 0.00 in0.0 mm 0.00 in0.0 mm 0.00 in0.0 mm
08:24 AM 79.8°F26.6°C 73.5°F23.1°C 81% 6.0 mph S9.7 kmh S 7.0 mph11.3 kmh 29.89 in1012.2 mb 0.00 in0.0 mm 0.00 in0.0 mm 0.00 in0.0 mm
08:26 AM 79.9°F26.6°C 73.6°F23.1°C 81% 2.0 mph SSW3.2 kmh SSW 7.0 mph11.3 kmh 29.89 in1012.2 mb 0.00 in0.0 mm 0.00 in0.0 mm 0.00 in0.0 mm
08:28 AM 80.0°F26.7°C 73.7°F23.2°C 81% 2.0 mph SSW3.2 kmh SSW 8.0 mph12.9 kmh 29.89 in1012.2 mb 0.00 in0.0 mm 0.00 in0.0 mm 0.00 in0.0 mm
08:30 AM 80.0°F26.7°C 73.7°F23.2°C 81% 5.0 mph WSW8.0 kmh WSW 5.0 mph8.0 kmh 29.89 in1012.2 mb 0.00 in0.0 mm 0.00 in0.0 mm 0.00 in0.0 mm
08:32 AM 80.1°F26.7°C 73.8°F23.2°C 81% 5.0 mph SW8.0 kmh SW 5.0 mph8.0 kmh 29.89 in1012.2 mb 0.00 in0.0 mm 0.00 in0.0 mm 0.00 in0.0 mm
08:34 AM 80.1°F26.7°C 73.8°F23.2°C 81% 1.0 mph SSW1.6 kmh SSW 8.0 mph12.9 kmh 29.89 in1012.2 mb 0.00 in0.0 mm 0.00 in0.0 mm 0.00 in0.0 mm
08:36 AM 80.2°F26.8°C 73.8°F23.2°C 81% 4.0 mph WSW6.4 kmh WSW 8.0 mph12.9 kmh 29.89 in1012.2 mb 0.00 in0.0 mm 0.00 in0.0 mm 0.00 in0.0 mm
08:38 AM 80.3°F26.8°C 73.9°F23.3°C 81% 4.0 mph WSW6.4 kmh WSW 8.0 mph12.9 kmh 29.89 in1012.2 mb 0.00 in0.0 mm 0.00 in0.0 mm 0.00 in0.0 mm
08:40 AM 80.4°F26.9°C 74.0°F23.3°C 81% 6.0 mph S9.7 kmh S 8.0 mph12.9 kmh 29.89 in1012.2 mb 0.00 in0.0 mm 0.00 in0.0 mm 0.00 in0.0 mm
08:42 AM 80.5°F26.9°C 74.1°F23.4°C 81% 5.0 mph S8.0 kmh S 8.0 mph12.9 kmh 29.89 in1012.2 mb 0.00 in0.0 mm 0.00 in0.0 mm 0.00 in0.0 mm
08:44 AM 80.6°F27.0°C 73.9°F23.3°C 80% 3.0 mph S4.8 kmh S 8.0 mph12.9 kmh 29.89 in1012.2 mb 0.00 in0.0 mm 0.00 in0.0 mm 0.00 in0.0 mm
08:46 AM 80.6°F27.0°C 74.2°F23.4°C 81% 6.0 mph S9.7 kmh S 8.0 mph12.9 kmh 29.89 in1012.2 mb 0.00 in0.0 mm 0.00 in0.0 mm 0.00 in0.0 mm
08:48 AM 80.6°F27.0°C 74.2°F23.4°C 81% 5.0 mph SSW8.0 kmh SSW 8.0 mph12.9 kmh 29.89 in1012.2 mb 0.00 in0.0 mm 0.00 in0.0 mm 0.00 in0.0 mm
08:50 AM 80.7°F27.1°C 74.3°F23.5°C 81% 6.0 mph WSW9.7 kmh WSW 8.0 mph12.9 kmh 29.89 in1012.2 mb 0.00 in0.0 mm 0.00 in0.0 mm 0.00 in0.0 mm
08:52 AM 80.8°F27.1°C 74.1°F23.4°C 80% 3.0 mph W4.8 kmh W 8.0 mph12.9 kmh 29.89 in1012.2 mb 0.00 in0.0 mm 0.00 in0.0 mm 0.00 in0.0 mm
08:54 AM 80.9°F27.2°C 74.2°F23.4°C 80% 3.0 mph SSW4.8 kmh SSW 8.0 mph12.9 kmh 29.89 in1012.2 mb 0.00 in0.0 mm 0.00 in0.0 mm 0.00 in0.0 mm
08:56 AM 81.0°F27.2°C 74.3°F23.5°C 80% 2.0 mph WSW3.2 kmh WSW 8.0 mph12.9 kmh 29.89 in1012.2 mb 0.00 in0.0 mm 0.00 in0.0 mm 0.00 in0.0 mm
08:58 AM 81.3°F27.4°C 74.9°F23.8°C 81% 3.0 mph SW4.8 kmh SW 8.0 mph12.9 kmh 29.89 in1012.2 mb 0.00 in0.0 mm 0.00 in0.0 mm 0.00 in0.0 mm
08:59 AM 81.4°F27.4°C 74.3°F23.5°C 79% 3.0 mph SW4.8 kmh SW 8.0 mph12.9 kmh 29.89 in1012.2 mb 0.00 in0.0 mm 0.00 in0.0 mm 0.00 in0.0 mm
09:02 AM 81.6°F27.6°C 74.8°F23.8°C 80% 2.0 mph SW3.2 kmh SW 3.0 mph4.8 kmh 29.89 in1012.2 mb 0.00 in0.0 mm 0.00 in0.0 mm 0.00 in0.0 mm
09:04 AM 81.7°F27.6°C 74.6°F23.7°C 79% 6.0 mph WNW9.7 kmh WNW 6.0 mph9.7 kmh 29.89 in1012.2 mb 0.00 in0.0 mm 0.00 in0.0 mm 0.00 in0.0 mm
09:06 AM 81.7°F27.6°C 74.6°F23.7°C 79% 3.0 mph SSE4.8 kmh SSE 6.0 mph9.7 kmh 29.89 in1012.2 mb 0.00 in0.0 mm 0.00 in0.0 mm 0.00 in0.0 mm
09:08 AM 81.8°F27.7°C 74.7°F23.7°C 79% 4.0 mph SW6.4 kmh SW 7.0 mph11.3 kmh 29.89 in1012.2 mb 0.00 in0.0 mm 0.00 in0.0 mm 0.00 in0.0 mm
09:10 AM 81.9°F27.7°C 74.8°F23.8°C 79% 3.0 mph SSW4.8 kmh SSW 8.0 mph12.9 kmh 29.89 in1012.2 mb 0.00 in0.0 mm 0.00 in0.0 mm 0.00 in0.0 mm
09:12 AM 81.9°F27.7°C 74.8°F23.8°C 79% 2.0 mph SW3.2 kmh SW 8.0 mph12.9 kmh 29.89 in1012.2 mb 0.00 in0.0 mm 0.00 in0.0 mm 0.00 in0.0 mm
09:14 AM 82.1°F27.8°C 75.0°F23.9°C 79% 1.0 mph SW1.6 kmh SW 8.0 mph12.9 kmh 29.88 in1011.9 mb 0.00 in0.0 mm 0.00 in0.0 mm 0.00 in0.0 mm
09:16 AM 82.1°F27.8°C 74.6°F23.7°C 78% 1.0 mph SW1.6 kmh SW 8.0 mph12.9 kmh 29.88 in1011.9 mb 0.00 in0.0 mm 0.00 in0.0 mm 0.00 in0.0 mm
09:18 AM 82.4°F28.0°C 75.2°F24.0°C 79% 2.0 mph SW3.2 kmh SW 8.0 mph12.9 kmh 29.88 in1011.9 mb 0.00 in0.0 mm 0.00 in0.0 mm 0.00 in0.0 mm
09:20 AM 82.5°F28.1°C 75.0°F23.9°C 78% 4.0 mph S6.4 kmh S 8.0 mph12.9 kmh 29.89 in1012.2 mb 0.00 in0.0 mm 0.00 in0.0 mm 0.00 in0.0 mm
09:22 AM 82.5°F28.1°C 75.0°F23.9°C 78% 4.0 mph SW6.4 kmh SW 8.0 mph12.9 kmh 29.88 in1011.9 mb 0.00 in0.0 mm 0.00 in0.0 mm 0.00 in0.0 mm
09:24 AM 82.6°F28.1°C 74.7°F23.7°C 77% 2.0 mph W3.2 kmh W 8.0 mph12.9 kmh 29.88 in1011.9 mb 0.00 in0.0 mm 0.00 in0.0 mm 0.00 in0.0 mm
09:26 AM 82.6°F28.1°C 75.1°F23.9°C 78% 3.0 mph W4.8 kmh W 8.0 mph12.9 kmh 29.88 in1011.9 mb 0.00 in0.0 mm 0.00 in0.0 mm 0.00 in0.0 mm
09:28 AM 82.7°F28.2°C 74.8°F23.8°C 77% 4.0 mph SW6.4 kmh SW 8.0 mph12.9 kmh 29.88 in1011.9 mb 0.00 in0.0 mm 0.00 in0.0 mm 0.00 in0.0 mm
09:30 AM 82.8°F28.2°C 75.2°F24.0°C 78% 2.0 mph SSW3.2 kmh SSW 2.0 mph3.2 kmh 29.89 in1012.2 mb 0.00 in0.0 mm 0.00 in0.0 mm 0.00 in0.0 mm
09:32 AM 83.0°F28.3°C 75.1°F23.9°C 77% 4.0 mph SW6.4 kmh SW 9.0 mph14.5 kmh 29.89 in1012.2 mb 0.00 in0.0 mm 0.00 in0.0 mm 0.00 in0.0 mm
09:34 AM 83.2°F28.4°C 75.2°F24.0°C 77% 2.0 mph SSW3.2 kmh SSW 9.0 mph14.5 kmh 29.88 in1011.9 mb 0.00 in0.0 mm 0.00 in0.0 mm 0.00 in0.0 mm
09:36 AM 83.4°F28.6°C 75.4°F24.1°C 77% Calm Calm 9.0 mph14.5 kmh 29.89 in1012.2 mb 0.00 in0.0 mm 0.00 in0.0 mm 0.00 in0.0 mm
09:38 AM 83.6°F28.7°C 75.6°F24.2°C 77% 5.0 mph SW8.0 kmh SW 9.0 mph14.5 kmh 29.88 in1011.9 mb 0.00 in0.0 mm 0.00 in0.0 mm 0.00 in0.0 mm
09:40 AM 83.8°F28.8°C 75.0°F23.9°C 75% 5.0 mph S8.0 kmh S 9.0 mph14.5 kmh 29.89 in1012.2 mb 0.00 in0.0 mm 0.00 in0.0 mm 0.00 in0.0 mm
09:42 AM 83.8°F28.8°C 75.4°F24.1°C 76% 3.0 mph S4.8 kmh S 9.0 mph14.5 kmh 29.89 in1012.2 mb 0.00 in0.0 mm 0.00 in0.0 mm 0.00 in0.0 mm
09:44 AM 83.8°F28.8°C 75.0°F23.9°C 75% 5.0 mph WSW8.0 kmh WSW 9.0 mph14.5 kmh 29.88 in1011.9 mb 0.00 in0.0 mm 0.00 in0.0 mm 0.00 in0.0 mm
09:46 AM 83.8°F28.8°C 75.4°F24.1°C 76% 6.0 mph W9.7 kmh W 9.0 mph14.5 kmh 29.88 in1011.9 mb 0.00 in0.0 mm 0.00 in0.0 mm 0.00 in0.0 mm
09:48 AM 83.9°F28.8°C 75.1°F23.9°C 75% 4.0 mph W6.4 kmh W 9.0 mph14.5 kmh 29.88 in1011.9 mb 0.00 in0.0 mm 0.00 in0.0 mm 0.00 in0.0 mm
09:50 AM 83.9°F28.8°C 75.5°F24.2°C 76% 4.0 mph WSW6.4 kmh WSW 9.0 mph14.5 kmh 29.88 in1011.9 mb 0.00 in0.0 mm 0.00 in0.0 mm 0.00 in0.0 mm
09:52 AM 84.0°F28.9°C 75.2°F24.0°C 75% 4.0 mph SSW6.4 kmh SSW 9.0 mph14.5 kmh 29.88 in1011.9 mb 0.00 in0.0 mm 0.00 in0.0 mm 0.00 in0.0 mm
09:54 AM 84.1°F28.9°C 75.3°F24.1°C 75% 4.0 mph W6.4 kmh W 9.0 mph14.5 kmh 29.88 in1011.9 mb 0.00 in0.0 mm 0.00 in0.0 mm 0.00 in0.0 mm
09:56 AM 84.2°F29.0°C 75.4°F24.1°C 75% 3.0 mph WSW4.8 kmh WSW 9.0 mph14.5 kmh 29.88 in1011.9 mb 0.00 in0.0 mm 0.00 in0.0 mm 0.00 in0.0 mm
09:58 AM 84.3°F29.1°C 75.1°F23.9°C 74% 3.0 mph WSW4.8 kmh WSW 9.0 mph14.5 kmh 29.88 in1011.9 mb 0.00 in0.0 mm 0.00 in0.0 mm 0.00 in0.0 mm
10:00 AM 84.4°F29.1°C 75.2°F24.0°C 74% 3.0 mph SW4.8 kmh SW 3.0 mph4.8 kmh 29.88 in1011.9 mb 0.00 in0.0 mm 0.00 in0.0 mm 0.00 in0.0 mm
10:02 AM 84.3°F29.1°C 74.7°F23.7°C 73% 2.0 mph WSW3.2 kmh WSW 6.0 mph9.7 kmh 29.88 in1011.9 mb 0.00 in0.0 mm 0.00 in0.0 mm 0.00 in0.0 mm
10:04 AM 84.5°F29.2°C 75.3°F24.1°C 74% 1.0 mph WSW1.6 kmh WSW 6.0 mph9.7 kmh 29.88 in1011.9 mb 0.00 in0.0 mm 0.00 in0.0 mm 0.00 in0.0 mm
10:06 AM 84.7°F29.3°C 75.1°F23.9°C 73% 2.0 mph WSW3.2 kmh WSW 6.0 mph9.7 kmh 29.88 in1011.9 mb 0.00 in0.0 mm 0.00 in0.0 mm 0.00 in0.0 mm
10:08 AM 84.8°F29.3°C 74.8°F23.8°C 72% 1.0 mph SW1.6 kmh SW 6.0 mph9.7 kmh 29.88 in1011.9 mb 0.00 in0.0 mm 0.00 in0.0 mm 0.00 in0.0 mm
10:10 AM 84.9°F29.4°C 75.3°F24.1°C 73% 4.0 mph SSE6.4 kmh SSE 6.0 mph9.7 kmh 29.88 in1011.9 mb 0.00 in0.0 mm 0.00 in0.0 mm 0.00 in0.0 mm
10:12 AM 85.0°F29.4°C 75.0°F23.9°C 72% 4.0 mph WSW6.4 kmh WSW 7.0 mph11.3 kmh 29.88 in1011.9 mb 0.00 in0.0 mm 0.00 in0.0 mm 0.00 in0.0 mm
10:14 AM 85.1°F29.5°C 75.9°F24.4°C 74% 3.0 mph WSW4.8 kmh WSW 7.0 mph11.3 kmh 29.88 in1011.9 mb 0.00 in0.0 mm 0.00 in0.0 mm 0.00 in0.0 mm
10:16 AM 85.3°F29.6°C 75.3°F24.1°C 72% 2.0 mph SSW3.2 kmh SSW 7.0 mph11.3 kmh 29.88 in1011.9 mb 0.00 in0.0 mm 0.00 in0.0 mm 0.00 in0.0 mm
10:18 AM 85.4°F29.7°C 75.8°F24.3°C 73% 1.0 mph SSW1.6 kmh SSW 7.0 mph11.3 kmh 29.88 in1011.9 mb 0.00 in0.0 mm 0.00 in0.0 mm 0.00 in0.0 mm
10:20 AM 85.6°F29.8°C 76.0°F24.4°C 73% 6.0 mph WSW9.7 kmh WSW 8.0 mph12.9 kmh 29.88 in1011.9 mb 0.00 in0.0 mm 0.00 in0.0 mm 0.00 in0.0 mm
10:22 AM 85.5°F29.7°C 75.0°F23.9°C 71% 4.0 mph WNW6.4 kmh WNW 8.0 mph12.9 kmh 29.88 in1011.9 mb 0.00 in0.0 mm 0.00 in0.0 mm 0.00 in0.0 mm
10:24 AM 85.4°F29.7°C 75.4°F24.1°C 72% 2.0 mph NW3.2 kmh NW 8.0 mph12.9 kmh 29.88 in1011.9 mb 0.00 in0.0 mm 0.00 in0.0 mm 0.00 in0.0 mm
10:26 AM 85.5°F29.7°C 75.9°F24.4°C 73% Calm Calm 8.0 mph12.9 kmh 29.88 in1011.9 mb 0.00 in0.0 mm 0.00 in0.0 mm 0.00 in0.0 mm
10:28 AM 85.9°F29.9°C 76.2°F24.6°C 73% Calm Calm 8.0 mph12.9 kmh 29.88 in1011.9 mb 0.00 in0.0 mm 0.00 in0.0 mm 0.00 in0.0 mm
10:30 AM 86.2°F30.1°C 76.1°F24.5°C 72% 3.0 mph SW4.8 kmh SW 3.0 mph4.8 kmh 29.88 in1011.9 mb 0.00 in0.0 mm 0.00 in0.0 mm 0.00 in0.0 mm
10:32 AM 86.3°F30.2°C 75.4°F24.1°C 70% 4.0 mph S6.4 kmh S 6.0 mph9.7 kmh 29.88 in1011.9 mb 0.00 in0.0 mm 0.00 in0.0 mm 0.00 in0.0 mm
10:34 AM 86.3°F30.2°C 75.8°F24.3°C 71% 5.0 mph S8.0 kmh S 6.0 mph9.7 kmh 29.88 in1011.9 mb 0.00 in0.0 mm 0.00 in0.0 mm 0.00 in0.0 mm
10:36 AM 86.2°F30.1°C 74.8°F23.8°C 69% Calm Calm 6.0 mph9.7 kmh 29.88 in1011.9 mb 0.00 in0.0 mm 0.00 in0.0 mm 0.00 in0.0 mm
10:38 AM 86.4°F30.2°C 75.5°F24.2°C 70% 3.0 mph SW4.8 kmh SW 6.0 mph9.7 kmh 29.88 in1011.9 mb 0.00 in0.0 mm 0.00 in0.0 mm 0.00 in0.0 mm
10:40 AM 86.7°F30.4°C 76.6°F24.8°C 72% 4.0 mph WSW6.4 kmh WSW 6.0 mph9.7 kmh 29.88 in1011.9 mb 0.00 in0.0 mm 0.00 in0.0 mm 0.00 in0.0 mm
10:42 AM 86.7°F30.4°C 75.3°F24.1°C 69% 3.0 mph SW4.8 kmh SW 6.0 mph9.7 kmh 29.88 in1011.9 mb 0.00 in0.0 mm 0.00 in0.0 mm 0.00 in0.0 mm
10:44 AM 86.6°F30.3°C 75.2°F24.0°C 69% 1.0 mph SW1.6 kmh SW 6.0 mph9.7 kmh 29.88 in1011.9 mb 0.00 in0.0 mm 0.00 in0.0 mm 0.00 in0.0 mm
10:46 AM 86.7°F30.4°C 75.8°F24.3°C 70% 1.0 mph SSW1.6 kmh SSW 6.0 mph9.7 kmh 29.88 in1011.9 mb 0.00 in0.0 mm 0.00 in0.0 mm 0.00 in0.0 mm
10:48 AM 86.9°F30.5°C 75.5°F24.2°C 69% Calm Calm 6.0 mph9.7 kmh 29.88 in1011.9 mb 0.00 in0.0 mm 0.00 in0.0 mm 0.00 in0.0 mm
10:50 AM 87.0°F30.6°C 75.2°F24.0°C 68% 2.0 mph SSE3.2 kmh SSE 6.0 mph9.7 kmh 29.88 in1011.9 mb 0.00 in0.0 mm 0.00 in0.0 mm 0.00 in0.0 mm
10:52 AM 87.2°F30.7°C 75.4°F24.1°C 68% Calm Calm 6.0 mph9.7 kmh 29.88 in1011.9 mb 0.00 in0.0 mm 0.00 in0.0 mm 0.00 in0.0 mm
10:54 AM 87.4°F30.8°C 76.0°F24.4°C 69% 3.0 mph SSE4.8 kmh SSE 6.0 mph9.7 kmh 29.88 in1011.9 mb 0.00 in0.0 mm 0.00 in0.0 mm 0.00 in0.0 mm
10:56 AM 87.5°F30.8°C 75.2°F24.0°C 67% 1.0 mph SE1.6 kmh SE 6.0 mph9.7 kmh 29.88 in1011.9 mb 0.00 in0.0 mm 0.00 in0.0 mm 0.00 in0.0 mm
10:58 AM 87.7°F30.9°C 75.8°F24.3°C 68% Calm Calm 6.0 mph9.7 kmh 29.88 in1011.9 mb 0.00 in0.0 mm 0.00 in0.0 mm 0.00 in0.0 mm
11:00 AM 88.0°F31.1°C 76.6°F24.8°C 69% Calm Calm 1.0 mph1.6 kmh 29.88 in1011.9 mb 0.00 in0.0 mm 0.00 in0.0 mm 0.00 in0.0 mm
11:02 AM 88.3°F31.3°C 75.1°F23.9°C 65% 5.0 mph SW8.0 kmh SW 5.0 mph8.0 kmh 29.88 in1011.9 mb 0.00 in0.0 mm 0.00 in0.0 mm 0.00 in0.0 mm
11:04 AM 88.5°F31.4°C 74.3°F23.5°C 63% 2.0 mph WSW3.2 kmh WSW 5.0 mph8.0 kmh 29.88 in1011.9 mb 0.00 in0.0 mm 0.00 in0.0 mm 0.00 in0.0 mm
11:06 AM 88.6°F31.4°C 74.4°F23.6°C 63% 4.0 mph WSW6.4 kmh WSW 5.0 mph8.0 kmh 29.88 in1011.9 mb 0.00 in0.0 mm 0.00 in0.0 mm 0.00 in0.0 mm
11:08 AM 88.6°F31.4°C 74.4°F23.6°C 63% 3.0 mph W4.8 kmh W 5.0 mph8.0 kmh 29.88 in1011.9 mb 0.00 in0.0 mm 0.00 in0.0 mm 0.00 in0.0 mm
11:10 AM 88.6°F31.4°C 73.9°F23.3°C 62% 2.0 mph W3.2 kmh W 6.0 mph9.7 kmh 29.88 in1011.9 mb 0.00 in0.0 mm 0.00 in0.0 mm 0.00 in0.0 mm
11:12 AM 88.6°F31.4°C 74.4°F23.6°C 63% 2.0 mph W3.2 kmh W 6.0 mph9.7 kmh 29.88 in1011.9 mb 0.00 in0.0 mm 0.00 in0.0 mm 0.00 in0.0 mm
11:14 AM 88.6°F31.4°C 74.4°F23.6°C 63% 1.0 mph SW1.6 kmh SW 6.0 mph9.7 kmh 29.88 in1011.9 mb 0.00 in0.0 mm 0.00 in0.0 mm 0.00 in0.0 mm
11:16 AM 88.6°F31.4°C 74.4°F23.6°C 63% 1.0 mph SW1.6 kmh SW 6.0 mph9.7 kmh 29.88 in1011.9 mb 0.00 in0.0 mm 0.00 in0.0 mm 0.00 in0.0 mm
11:18 AM 88.6°F31.4°C 73.9°F23.3°C 62% 3.0 mph SW4.8 kmh SW 6.0 mph9.7 kmh 29.88 in1011.9 mb 0.00 in0.0 mm 0.00 in0.0 mm 0.00 in0.0 mm
11:20 AM 88.6°F31.4°C 74.9°F23.8°C 64% 1.0 mph SW1.6 kmh SW 6.0 mph9.7 kmh 29.88 in1011.9 mb 0.00 in0.0 mm 0.00 in0.0 mm 0.00 in0.0 mm
11:22 AM 88.6°F31.4°C 74.9°F23.8°C 64% 3.0 mph W4.8 kmh W 6.0 mph9.7 kmh 29.88 in1011.9 mb 0.00 in0.0 mm 0.00 in0.0 mm 0.00 in0.0 mm
11:24 AM 88.6°F31.4°C 74.9°F23.8°C 64% 2.0 mph SSW3.2 kmh SSW 6.0 mph9.7 kmh 29.88 in1011.9 mb 0.00 in0.0 mm 0.00 in0.0 mm 0.00 in0.0 mm
11:26 AM 88.9°F31.6°C 74.7°F23.7°C 63% 3.0 mph S4.8 kmh S 8.0 mph12.9 kmh 29.88 in1011.9 mb 0.00 in0.0 mm 0.00 in0.0 mm 0.00 in0.0 mm
11:28 AM 89.0°F31.7°C 73.8°F23.2°C 61% 1.0 mph S1.6 kmh S 8.0 mph12.9 kmh 29.88 in1011.9 mb 0.00 in0.0 mm 0.00 in0.0 mm 0.00 in0.0 mm
11:30 AM 89.1°F31.7°C 73.9°F23.3°C 61% 2.0 mph S3.2 kmh S 2.0 mph3.2 kmh 29.88 in1011.9 mb 0.00 in0.0 mm 0.00 in0.0 mm 0.00 in0.0 mm
11:32 AM 89.1°F31.7°C 73.9°F23.3°C 61% 7.0 mph SW11.3 kmh SW 7.0 mph11.3 kmh 29.88 in1011.9 mb 0.00 in0.0 mm 0.00 in0.0 mm 0.00 in0.0 mm
11:34 AM 88.8°F31.6°C 74.1°F23.4°C 62% 3.0 mph WSW4.8 kmh WSW 7.0 mph11.3 kmh 29.88 in1011.9 mb 0.00 in0.0 mm 0.00 in0.0 mm 0.00 in0.0 mm
11:36 AM 88.8°F31.6°C 74.1°F23.4°C 62% 4.0 mph SW6.4 kmh SW 7.0 mph11.3 kmh 29.88 in1011.9 mb 0.00 in0.0 mm 0.00 in0.0 mm 0.00 in0.0 mm
11:38 AM 88.6°F31.4°C 72.5°F22.5°C 59% 2.0 mph SW3.2 kmh SW 7.0 mph11.3 kmh 29.88 in1011.9 mb 0.00 in0.0 mm 0.00 in0.0 mm 0.00 in0.0 mm
11:40 AM 88.6°F31.4°C 72.5°F22.5°C 59% 2.0 mph SW3.2 kmh SW 7.0 mph11.3 kmh 29.88 in1011.9 mb 0.00 in0.0 mm 0.00 in0.0 mm 0.00 in0.0 mm
11:42 AM 88.7°F31.5°C 73.0°F22.8°C 60% 2.0 mph SW3.2 kmh SW 7.0 mph11.3 kmh 29.88 in1011.9 mb 0.00 in0.0 mm 0.00 in0.0 mm 0.00 in0.0 mm
11:44 AM 88.9°F31.6°C 72.7°F22.6°C 59% 2.0 mph SW3.2 kmh SW 7.0 mph11.3 kmh 29.88 in1011.9 mb 0.00 in0.0 mm 0.00 in0.0 mm 0.00 in0.0 mm
11:46 AM 89.2°F31.8°C 73.5°F23.1°C 60% 4.0 mph S6.4 kmh S 7.0 mph11.3 kmh 29.88 in1011.9 mb 0.00 in0.0 mm 0.00 in0.0 mm 0.00 in0.0 mm
11:48 AM 89.4°F31.9°C 73.2°F22.9°C 59% 2.0 mph S3.2 kmh S 7.0 mph11.3 kmh 29.88 in1011.9 mb 0.00 in0.0 mm 0.00 in0.0 mm 0.00 in0.0 mm
11:50 AM 89.7°F32.1°C 74.0°F23.3°C 60% 4.0 mph S6.4 kmh S 7.0 mph11.3 kmh 29.88 in1011.9 mb 0.00 in0.0 mm 0.00 in0.0 mm 0.00 in0.0 mm
11:52 AM 90.0°F32.2°C 73.3°F22.9°C 58% 2.0 mph S3.2 kmh S 7.0 mph11.3 kmh 29.88 in1011.9 mb 0.00 in0.0 mm 0.00 in0.0 mm 0.00 in0.0 mm
11:54 AM 90.0°F32.2°C 73.8°F23.2°C 59% Calm Calm 7.0 mph11.3 kmh 29.87 in1011.5 mb 0.00 in0.0 mm 0.00 in0.0 mm 0.00 in0.0 mm
11:56 AM 90.2°F32.3°C 73.9°F23.3°C 59% 1.0 mph S1.6 kmh S 7.0 mph11.3 kmh 29.87 in1011.5 mb 0.00 in0.0 mm 0.00 in0.0 mm 0.00 in0.0 mm
11:57 AM 90.5°F32.5°C 73.7°F23.2°C 58% 2.0 mph S3.2 kmh S 7.0 mph11.3 kmh 29.87 in1011.5 mb 0.00 in0.0 mm 0.00 in0.0 mm 0.00 in0.0 mm
12:00 PM 90.5°F32.5°C 74.2°F23.4°C 59% 2.0 mph SE3.2 kmh SE 7.0 mph11.3 kmh 29.87 in1011.5 mb 0.00 in0.0 mm 0.00 in0.0 mm 0.00 in0.0 mm
12:02 PM 90.5°F32.5°C 73.2°F22.9°C 57% 3.0 mph SE4.8 kmh SE 3.0 mph4.8 kmh 29.87 in1011.5 mb 0.00 in0.0 mm 0.00 in0.0 mm 0.00 in0.0 mm
12:04 PM 90.4°F32.4°C 73.6°F23.1°C 58% 1.0 mph SE1.6 kmh SE 3.0 mph4.8 kmh 29.87 in1011.5 mb 0.00 in0.0 mm 0.00 in0.0 mm 0.00 in0.0 mm
12:06 PM 90.4°F32.4°C 73.6°F23.1°C 58% 2.0 mph NNE3.2 kmh NNE 5.0 mph8.0 kmh 29.87 in1011.5 mb 0.00 in0.0 mm 0.00 in0.0 mm 0.00 in0.0 mm
12:08 PM 90.4°F32.4°C 74.6°F23.7°C 60% 3.0 mph NNW4.8 kmh NNW 6.0 mph9.7 kmh 29.87 in1011.5 mb 0.00 in0.0 mm 0.00 in0.0 mm 0.00 in0.0 mm
12:10 PM 90.3°F32.4°C 73.5°F23.1°C 58% 6.0 mph NW9.7 kmh NW 8.0 mph12.9 kmh 29.87 in1011.5 mb 0.00 in0.0 mm 0.00 in0.0 mm 0.00 in0.0 mm
12:12 PM 90.0°F32.2°C 73.3°F22.9°C 58% 3.0 mph NNW4.8 kmh NNW 8.0 mph12.9 kmh 29.87 in1011.5 mb 0.00 in0.0 mm 0.00 in0.0 mm 0.00 in0.0 mm
12:14 PM 89.9°F32.2°C 74.2°F23.4°C 60% 1.0 mph NW1.6 kmh NW 8.0 mph12.9 kmh 29.87 in1011.5 mb 0.00 in0.0 mm 0.00 in0.0 mm 0.00 in0.0 mm
12:16 PM 90.0°F32.2°C 74.8°F23.8°C 61% 3.0 mph NNE4.8 kmh NNE 8.0 mph12.9 kmh 29.87 in1011.5 mb 0.00 in0.0 mm 0.00 in0.0 mm 0.00 in0.0 mm
12:18 PM 90.2°F32.3°C 73.9°F23.3°C 59% 4.0 mph NW6.4 kmh NW 8.0 mph12.9 kmh 29.87 in1011.5 mb 0.00 in0.0 mm 0.00 in0.0 mm 0.00 in0.0 mm
12:20 PM 90.2°F32.3°C 73.4°F23.0°C 58% 1.0 mph N1.6 kmh N 8.0 mph12.9 kmh 29.87 in1011.5 mb 0.00 in0.0 mm 0.00 in0.0 mm 0.00 in0.0 mm
12:22 PM 90.2°F32.3°C 73.9°F23.3°C 59% Calm Calm 8.0 mph12.9 kmh 29.87 in1011.5 mb 0.00 in0.0 mm 0.00 in0.0 mm 0.00 in0.0 mm
12:24 PM 90.3°F32.4°C 73.5°F23.1°C 58% 1.0 mph N1.6 kmh N 8.0 mph12.9 kmh 29.87 in1011.5 mb 0.00 in0.0 mm 0.00 in0.0 mm 0.00 in0.0 mm
12:26 PM 90.5°F32.5°C 73.2°F22.9°C 57% Calm Calm 8.0 mph12.9 kmh 29.86 in1011.2 mb 0.00 in0.0 mm 0.00 in0.0 mm 0.00 in0.0 mm
12:28 PM 90.6°F32.6°C 73.8°F23.2°C 58% 4.0 mph NW6.4 kmh NW 8.0 mph12.9 kmh 29.86 in1011.2 mb 0.00 in0.0 mm 0.00 in0.0 mm 0.00 in0.0 mm
12:30 PM 90.7°F32.6°C 73.4°F23.0°C 57% 3.0 mph NW4.8 kmh NW 4.0 mph6.4 kmh 29.86 in1011.2 mb 0.00 in0.0 mm 0.00 in0.0 mm 0.00 in0.0 mm
12:32 PM 90.7°F32.6°C 73.4°F23.0°C 57% 3.0 mph NW4.8 kmh NW 4.0 mph6.4 kmh 29.86 in1011.2 mb 0.00 in0.0 mm 0.00 in0.0 mm 0.00 in0.0 mm
12:34 PM 90.6°F32.6°C 72.8°F22.7°C 56% 3.0 mph NW4.8 kmh NW 4.0 mph6.4 kmh 29.86 in1011.2 mb 0.00 in0.0 mm 0.00 in0.0 mm 0.00 in0.0 mm
12:36 PM 90.6°F32.6°C 73.3°F22.9°C 57% 3.0 mph NW4.8 kmh NW 4.0 mph6.4 kmh 29.86 in1011.2 mb 0.00 in0.0 mm 0.00 in0.0 mm 0.00 in0.0 mm
12:38 PM 90.7°F32.6°C 73.9°F23.3°C 58% 2.0 mph NW3.2 kmh NW 4.0 mph6.4 kmh 29.86 in1011.2 mb 0.00 in0.0 mm 0.00 in0.0 mm 0.00 in0.0 mm
12:40 PM 90.6°F32.6°C 73.3°F22.9°C 57% 2.0 mph NW3.2 kmh NW 4.0 mph6.4 kmh 29.86 in1011.2 mb 0.00 in0.0 mm 0.00 in0.0 mm 0.00 in0.0 mm
12:42 PM 90.5°F32.5°C 72.7°F22.6°C 56% 1.0 mph NW1.6 kmh NW 4.0 mph6.4 kmh 29.86 in1011.2 mb 0.00 in0.0 mm 0.00 in0.0 mm 0.00 in0.0 mm
12:44 PM 90.5°F32.5°C 73.7°F23.2°C 58% 1.0 mph NW1.6 kmh NW 4.0 mph6.4 kmh 29.86 in1011.2 mb 0.00 in0.0 mm 0.00 in0.0 mm 0.00 in0.0 mm
12:46 PM 90.6°F32.6°C 74.3°F23.5°C 59% 2.0 mph NW3.2 kmh NW 4.0 mph6.4 kmh 29.86 in1011.2 mb 0.00 in0.0 mm 0.00 in0.0 mm 0.00 in0.0 mm
12:48 PM 90.6°F32.6°C 73.8°F23.2°C 58% 1.0 mph NW1.6 kmh NW 4.0 mph6.4 kmh 29.86 in1011.2 mb 0.00 in0.0 mm 0.00 in0.0 mm 0.00 in0.0 mm
12:50 PM 90.7°F32.6°C 74.9°F23.8°C 60% 3.0 mph NW4.8 kmh NW 4.0 mph6.4 kmh 29.86 in1011.2 mb 0.00 in0.0 mm 0.00 in0.0 mm 0.00 in0.0 mm
12:52 PM 90.7°F32.6°C 74.4°F23.6°C 59% 3.0 mph SSE4.8 kmh SSE 4.0 mph6.4 kmh 29.86 in1011.2 mb 0.00 in0.0 mm 0.00 in0.0 mm 0.00 in0.0 mm
12:54 PM 90.6°F32.6°C 74.8°F23.8°C 60% 3.0 mph SE4.8 kmh SE 6.0 mph9.7 kmh 29.86 in1011.2 mb 0.00 in0.0 mm 0.00 in0.0 mm 0.00 in0.0 mm
12:56 PM 90.4°F32.4°C 74.1°F23.4°C 59% 1.0 mph ESE1.6 kmh ESE 6.0 mph9.7 kmh 29.86 in1011.2 mb 0.00 in0.0 mm 0.00 in0.0 mm 0.00 in0.0 mm
12:58 PM 90.6°F32.6°C 74.8°F23.8°C 60% 3.0 mph E4.8 kmh E 6.0 mph9.7 kmh 29.85 in1010.8 mb 0.00 in0.0 mm 0.00 in0.0 mm 0.00 in0.0 mm
01:00 PM 90.6°F32.6°C 73.3°F22.9°C 57% 1.0 mph E1.6 kmh E 6.0 mph9.7 kmh 29.85 in1010.8 mb 0.00 in0.0 mm 0.00 in0.0 mm 0.00 in0.0 mm
01:02 PM 90.7°F32.6°C 74.4°F23.6°C 59% 2.0 mph NE3.2 kmh NE 8.0 mph12.9 kmh 29.85 in1010.8 mb 0.00 in0.0 mm 0.00 in0.0 mm 0.00 in0.0 mm
01:04 PM 90.7°F32.6°C 74.4°F23.6°C 59% 2.0 mph ENE3.2 kmh ENE 8.0 mph12.9 kmh 29.85 in1010.8 mb 0.00 in0.0 mm 0.00 in0.0 mm 0.00 in0.0 mm
01:06 PM 90.9°F32.7°C 74.6°F23.7°C 59% 3.0 mph E4.8 kmh E 8.0 mph12.9 kmh 29.85 in1010.8 mb 0.00 in0.0 mm 0.00 in0.0 mm 0.00 in0.0 mm
01:08 PM 90.9°F32.7°C 74.1°F23.4°C 58% 3.0 mph SE4.8 kmh SE 8.0 mph12.9 kmh 29.85 in1010.8 mb 0.00 in0.0 mm 0.00 in0.0 mm 0.00 in0.0 mm
01:10 PM 90.9°F32.7°C 73.6°F23.1°C 57% 1.0 mph SE1.6 kmh SE 8.0 mph12.9 kmh 29.85 in1010.8 mb 0.00 in0.0 mm 0.00 in0.0 mm 0.00 in0.0 mm
01:12 PM 90.9°F32.7°C 75.1°F23.9°C 60% 1.0 mph SE1.6 kmh SE 8.0 mph12.9 kmh 29.85 in1010.8 mb 0.00 in0.0 mm 0.00 in0.0 mm 0.00 in0.0 mm
01:14 PM 90.8°F32.7°C 73.5°F23.1°C 57% 3.0 mph ESE4.8 kmh ESE 8.0 mph12.9 kmh 29.85 in1010.8 mb 0.00 in0.0 mm 0.00 in0.0 mm 0.00 in0.0 mm
01:16 PM 90.7°F32.6°C 73.4°F23.0°C 57% 1.0 mph ESE1.6 kmh ESE 8.0 mph12.9 kmh 29.85 in1010.8 mb 0.00 in0.0 mm 0.00 in0.0 mm 0.00 in0.0 mm
01:18 PM 90.7°F32.6°C 73.9°F23.3°C 58% 1.0 mph ESE1.6 kmh ESE 8.0 mph12.9 kmh 29.85 in1010.8 mb 0.00 in0.0 mm 0.00 in0.0 mm 0.00 in0.0 mm
01:20 PM 90.8°F32.7°C 74.5°F23.6°C 59% 1.0 mph ESE1.6 kmh ESE 8.0 mph12.9 kmh 29.85 in1010.8 mb 0.00 in0.0 mm 0.00 in0.0 mm 0.00 in0.0 mm
01:22 PM 90.9°F32.7°C 73.6°F23.1°C 57% 3.0 mph SE4.8 kmh SE 8.0 mph12.9 kmh 29.85 in1010.8 mb 0.00 in0.0 mm 0.00 in0.0 mm 0.00 in0.0 mm
01:24 PM 91.0°F32.8°C 73.7°F23.2°C 57% 2.0 mph SE3.2 kmh SE 8.0 mph12.9 kmh 29.85 in1010.8 mb 0.00 in0.0 mm 0.00 in0.0 mm 0.00 in0.0 mm
01:26 PM 90.9°F32.7°C 73.6°F23.1°C 57% 3.0 mph SE4.8 kmh SE 8.0 mph12.9 kmh 29.85 in1010.8 mb 0.00 in0.0 mm 0.00 in0.0 mm 0.00 in0.0 mm
01:28 PM 90.8°F32.7°C 74.0°F23.3°C 58% 4.0 mph SE6.4 kmh SE 8.0 mph12.9 kmh 29.84 in1010.5 mb 0.00 in0.0 mm 0.00 in0.0 mm 0.00 in0.0 mm
01:30 PM 90.7°F32.6°C 72.9°F22.7°C 56% 1.0 mph SE1.6 kmh SE 2.0 mph3.2 kmh 29.84 in1010.5 mb 0.00 in0.0 mm 0.00 in0.0 mm 0.00 in0.0 mm
01:32 PM 90.7°F32.6°C 74.4°F23.6°C 59% 1.0 mph SE1.6 kmh SE 2.0 mph3.2 kmh 29.84 in1010.5 mb 0.00 in0.0 mm 0.00 in0.0 mm 0.00 in0.0 mm
01:34 PM 90.7°F32.6°C 73.4°F23.0°C 57% 1.0 mph SE1.6 kmh SE 2.0 mph3.2 kmh 29.84 in1010.5 mb 0.00 in0.0 mm 0.00 in0.0 mm 0.00 in0.0 mm
01:36 PM 90.8°F32.7°C 73.5°F23.1°C 57% 1.0 mph SE1.6 kmh SE 2.0 mph3.2 kmh 29.84 in1010.5 mb 0.00 in0.0 mm 0.00 in0.0 mm 0.00 in0.0 mm
01:38 PM 91.1°F32.8°C 73.8°F23.2°C 57% 1.0 mph SE1.6 kmh SE 3.0 mph4.8 kmh 29.84 in1010.5 mb 0.00 in0.0 mm 0.00 in0.0 mm 0.00 in0.0 mm
01:40 PM 91.2°F32.9°C 74.4°F23.6°C 58% 2.0 mph SE3.2 kmh SE 3.0 mph4.8 kmh 29.84 in1010.5 mb 0.00 in0.0 mm 0.00 in0.0 mm 0.00 in0.0 mm
01:42 PM 91.3°F32.9°C 74.5°F23.6°C 58% 2.0 mph SSE3.2 kmh SSE 4.0 mph6.4 kmh 29.84 in1010.5 mb 0.00 in0.0 mm 0.00 in0.0 mm 0.00 in0.0 mm
01:44 PM 91.2°F32.9°C 74.4°F23.6°C 58% 5.0 mph SSE8.0 kmh SSE 7.0 mph11.3 kmh 29.84 in1010.5 mb 0.00 in0.0 mm 0.00 in0.0 mm 0.00 in0.0 mm
01:46 PM 91.0°F32.8°C 73.7°F23.2°C 57% 2.0 mph S3.2 kmh S 7.0 mph11.3 kmh 29.84 in1010.5 mb 0.00 in0.0 mm 0.00 in0.0 mm 0.00 in0.0 mm
01:48 PM 91.0°F32.8°C 74.2°F23.4°C 58% 2.0 mph SSE3.2 kmh SSE 7.0 mph11.3 kmh 29.84 in1010.5 mb 0.00 in0.0 mm 0.00 in0.0 mm 0.00 in0.0 mm
01:50 PM 90.9°F32.7°C 74.6°F23.7°C 59% 4.0 mph S6.4 kmh S 7.0 mph11.3 kmh 29.84 in1010.5 mb 0.00 in0.0 mm 0.00 in0.0 mm 0.00 in0.0 mm
01:52 PM 90.7°F32.6°C 74.9°F23.8°C 60% 3.0 mph SE4.8 kmh SE 7.0 mph11.3 kmh 29.84 in1010.5 mb 0.00 in0.0 mm 0.00 in0.0 mm 0.00 in0.0 mm
01:54 PM 90.6°F32.6°C 74.3°F23.5°C 59% 3.0 mph SE4.8 kmh SE 7.0 mph11.3 kmh 29.84 in1010.5 mb 0.00 in0.0 mm 0.00 in0.0 mm 0.00 in0.0 mm
01:56 PM 90.5°F32.5°C 75.2°F24.0°C 61% 1.0 mph SE1.6 kmh SE 7.0 mph11.3 kmh 29.83 in1010.2 mb 0.00 in0.0 mm 0.00 in0.0 mm 0.00 in0.0 mm
01:58 PM 90.4°F32.4°C 75.1°F23.9°C 61% 3.0 mph SE4.8 kmh SE 7.0 mph11.3 kmh 29.83 in1010.2 mb 0.00 in0.0 mm 0.00 in0.0 mm 0.00 in0.0 mm
02:00 PM 90.4°F32.4°C 75.1°F23.9°C 61% 1.0 mph SE1.6 kmh SE 7.0 mph11.3 kmh 29.83 in1010.2 mb 0.00 in0.0 mm 0.00 in0.0 mm 0.00 in0.0 mm
02:02 PM 90.4°F32.4°C 76.1°F24.5°C 63% 5.0 mph SE8.0 kmh SE 5.0 mph8.0 kmh 29.83 in1010.2 mb 0.00 in0.0 mm 0.00 in0.0 mm 0.00 in0.0 mm
02:04 PM 90.4°F32.4°C 74.6°F23.7°C 60% 4.0 mph SE6.4 kmh SE 7.0 mph11.3 kmh 29.83 in1010.2 mb 0.00 in0.0 mm 0.00 in0.0 mm 0.00 in0.0 mm
02:06 PM 90.5°F32.5°C 74.7°F23.7°C 60% 1.0 mph SE1.6 kmh SE 7.0 mph11.3 kmh 29.83 in1010.2 mb 0.00 in0.0 mm 0.00 in0.0 mm 0.00 in0.0 mm
02:08 PM 90.7°F32.6°C 73.9°F23.3°C 58% 3.0 mph SE4.8 kmh SE 7.0 mph11.3 kmh 29.83 in1010.2 mb 0.00 in0.0 mm 0.00 in0.0 mm 0.00 in0.0 mm
02:10 PM 91.1°F32.8°C 75.8°F24.3°C 61% 2.0 mph S3.2 kmh S 7.0 mph11.3 kmh 29.83 in1010.2 mb 0.00 in0.0 mm 0.00 in0.0 mm 0.00 in0.0 mm
02:12 PM 91.5°F33.1°C 75.2°F24.0°C 59% 2.0 mph SE3.2 kmh SE 7.0 mph11.3 kmh 29.83 in1010.2 mb 0.00 in0.0 mm 0.00 in0.0 mm 0.00 in0.0 mm
02:14 PM 91.7°F33.2°C 75.9°F24.4°C 60% 2.0 mph SSE3.2 kmh SSE 7.0 mph11.3 kmh 29.83 in1010.2 mb 0.00 in0.0 mm 0.00 in0.0 mm 0.00 in0.0 mm
02:16 PM 91.8°F33.2°C 75.4°F24.1°C 59% 3.0 mph S4.8 kmh S 7.0 mph11.3 kmh 29.83 in1010.2 mb 0.00 in0.0 mm 0.00 in0.0 mm 0.00 in0.0 mm
02:18 PM 91.9°F33.3°C 75.5°F24.2°C 59% 2.0 mph S3.2 kmh S 7.0 mph11.3 kmh 29.83 in1010.2 mb 0.00 in0.0 mm 0.00 in0.0 mm 0.00 in0.0 mm
02:20 PM 92.1°F33.4°C 75.7°F24.3°C 59% 5.0 mph S8.0 kmh S 7.0 mph11.3 kmh 29.83 in1010.2 mb 0.00 in0.0 mm 0.00 in0.0 mm 0.00 in0.0 mm
02:22 PM 91.9°F33.3°C 75.0°F23.9°C 58% 4.0 mph S6.4 kmh S 7.0 mph11.3 kmh 29.82 in1009.8 mb 0.00 in0.0 mm 0.00 in0.0 mm 0.00 in0.0 mm
02:24 PM 91.7°F33.2°C 75.4°F24.1°C 59% 7.0 mph E11.3 kmh E 7.0 mph11.3 kmh 29.82 in1009.8 mb 0.00 in0.0 mm 0.00 in0.0 mm 0.00 in0.0 mm
02:26 PM 91.5°F33.1°C 75.2°F24.0°C 59% 4.0 mph E6.4 kmh E 7.0 mph11.3 kmh 29.82 in1009.8 mb 0.00 in0.0 mm 0.00 in0.0 mm 0.00 in0.0 mm
02:28 PM 91.2°F32.9°C 74.9°F23.8°C 59% Calm Calm 7.0 mph11.3 kmh 29.82 in1009.8 mb 0.00 in0.0 mm 0.00 in0.0 mm 0.00 in0.0 mm
02:30 PM 91.2°F32.9°C 76.9°F24.9°C 63% 5.0 mph E8.0 kmh E 8.0 mph12.9 kmh 29.82 in1009.8 mb 0.00 in0.0 mm 0.00 in0.0 mm 0.00 in0.0 mm
02:32 PM 91.2°F32.9°C 74.9°F23.8°C 59% 7.0 mph E11.3 kmh E 8.0 mph12.9 kmh 29.82 in1009.8 mb 0.00 in0.0 mm 0.00 in0.0 mm 0.00 in0.0 mm
02:34 PM 91.2°F32.9°C 74.9°F23.8°C 59% 2.0 mph E3.2 kmh E 8.0 mph12.9 kmh 29.82 in1009.8 mb 0.00 in0.0 mm 0.00 in0.0 mm 0.00 in0.0 mm
02:36 PM 91.2°F32.9°C 74.9°F23.8°C 59% 4.0 mph S6.4 kmh S 8.0 mph12.9 kmh 29.81 in1009.5 mb 0.00 in0.0 mm 0.00 in0.0 mm 0.00 in0.0 mm
02:38 PM 91.3°F32.9°C 75.0°F23.9°C 59% 4.0 mph SE6.4 kmh SE 8.0 mph12.9 kmh 29.82 in1009.8 mb 0.00 in0.0 mm 0.00 in0.0 mm 0.00 in0.0 mm
02:40 PM 91.3°F32.9°C 75.5°F24.2°C 60% 3.0 mph SE4.8 kmh SE 8.0 mph12.9 kmh 29.82 in1009.8 mb 0.00 in0.0 mm 0.00 in0.0 mm 0.00 in0.0 mm
02:42 PM 91.5°F33.1°C 75.7°F24.3°C 60% 3.0 mph SE4.8 kmh SE 8.0 mph12.9 kmh 29.81 in1009.5 mb 0.00 in0.0 mm 0.00 in0.0 mm 0.00 in0.0 mm
02:44 PM 91.6°F33.1°C 74.7°F23.7°C 58% 2.0 mph SE3.2 kmh SE 8.0 mph12.9 kmh 29.82 in1009.8 mb 0.00 in0.0 mm 0.00 in0.0 mm 0.00 in0.0 mm
02:46 PM 91.6°F33.1°C 75.3°F24.1°C 59% 2.0 mph SE3.2 kmh SE 8.0 mph12.9 kmh 29.82 in1009.8 mb 0.00 in0.0 mm 0.00 in0.0 mm 0.00 in0.0 mm
02:48 PM 91.5°F33.1°C 75.2°F24.0°C 59% 4.0 mph E6.4 kmh E 8.0 mph12.9 kmh 29.82 in1009.8 mb 0.00 in0.0 mm 0.00 in0.0 mm 0.00 in0.0 mm
02:50 PM 91.3°F32.9°C 75.0°F23.9°C 59% 1.0 mph E1.6 kmh E 8.0 mph12.9 kmh 29.82 in1009.8 mb 0.00 in0.0 mm 0.00 in0.0 mm 0.00 in0.0 mm
02:52 PM 91.0°F32.8°C 75.2°F24.0°C 60% 4.0 mph E6.4 kmh E 8.0 mph12.9 kmh 29.81 in1009.5 mb 0.00 in0.0 mm 0.00 in0.0 mm 0.00 in0.0 mm
02:54 PM 90.6°F32.6°C 74.3°F23.5°C 59% 5.0 mph ENE8.0 kmh ENE 8.0 mph12.9 kmh 29.81 in1009.5 mb 0.00 in0.0 mm 0.00 in0.0 mm 0.00 in0.0 mm
02:56 PM 90.3°F32.4°C 74.0°F23.3°C 59% 3.0 mph SE4.8 kmh SE 8.0 mph12.9 kmh 29.81 in1009.5 mb 0.00 in0.0 mm 0.00 in0.0 mm 0.00 in0.0 mm
02:58 PM 90.1°F32.3°C 74.9°F23.8°C 61% 2.0 mph E3.2 kmh E 8.0 mph12.9 kmh 29.81 in1009.5 mb 0.00 in0.0 mm 0.00 in0.0 mm 0.00 in0.0 mm
03:00 PM 90.0°F32.2°C 74.8°F23.8°C 61% 1.0 mph E1.6 kmh E 2.0 mph3.2 kmh 29.81 in1009.5 mb 0.00 in0.0 mm 0.00 in0.0 mm 0.00 in0.0 mm
03:02 PM 89.9°F32.2°C 74.2°F23.4°C 60% 4.0 mph SE6.4 kmh SE 4.0 mph6.4 kmh 29.82 in1009.8 mb 0.00 in0.0 mm 0.00 in0.0 mm 0.00 in0.0 mm
03:04 PM 89.7°F32.1°C 74.0°F23.3°C 60% 3.0 mph SE4.8 kmh SE 5.0 mph8.0 kmh 29.82 in1009.8 mb 0.00 in0.0 mm 0.00 in0.0 mm 0.00 in0.0 mm
03:06 PM 89.7°F32.1°C 74.5°F23.6°C 61% 3.0 mph SE4.8 kmh SE 5.0 mph8.0 kmh 29.82 in1009.8 mb 0.00 in0.0 mm 0.00 in0.0 mm 0.00 in0.0 mm
03:08 PM 89.7°F32.1°C 74.5°F23.6°C 61% 1.0 mph SE1.6 kmh SE 5.0 mph8.0 kmh 29.82 in1009.8 mb 0.00 in0.0 mm 0.00 in0.0 mm 0.00 in0.0 mm
03:10 PM 89.7°F32.1°C 74.5°F23.6°C 61% 1.0 mph SE1.6 kmh SE 5.0 mph8.0 kmh 29.82 in1009.8 mb 0.00 in0.0 mm 0.00 in0.0 mm 0.00 in0.0 mm
03:12 PM 89.6°F32.0°C 74.4°F23.6°C 61% 1.0 mph SE1.6 kmh SE 5.0 mph8.0 kmh 29.82 in1009.8 mb 0.00 in0.0 mm 0.00 in0.0 mm 0.00 in0.0 mm
03:14 PM 89.6°F32.0°C 74.4°F23.6°C 61% 2.0 mph SE3.2 kmh SE 5.0 mph8.0 kmh 29.82 in1009.8 mb 0.00 in0.0 mm 0.00 in0.0 mm 0.00 in0.0 mm
03:16 PM 89.5°F31.9°C 74.3°F23.5°C 61% 4.0 mph SE6.4 kmh SE 5.0 mph8.0 kmh 29.82 in1009.8 mb 0.00 in0.0 mm 0.00 in0.0 mm 0.00 in0.0 mm
03:18 PM 89.5°F31.9°C 74.3°F23.5°C 61% 3.0 mph S4.8 kmh S 5.0 mph8.0 kmh 29.82 in1009.8 mb 0.00 in0.0 mm 0.00 in0.0 mm 0.00 in0.0 mm
03:20 PM 89.5°F31.9°C 74.8°F23.8°C 62% 1.0 mph S1.6 kmh S 5.0 mph8.0 kmh 29.82 in1009.8 mb 0.00 in0.0 mm 0.00 in0.0 mm 0.00 in0.0 mm
03:22 PM 89.5°F31.9°C 75.3°F24.1°C 63% 2.0 mph S3.2 kmh S 5.0 mph8.0 kmh 29.82 in1009.8 mb 0.00 in0.0 mm 0.00 in0.0 mm 0.00 in0.0 mm
03:24 PM 89.5°F31.9°C 75.3°F24.1°C 63% 5.0 mph SSE8.0 kmh SSE 5.0 mph8.0 kmh 29.82 in1009.8 mb 0.00 in0.0 mm 0.00 in0.0 mm 0.00 in0.0 mm
03:26 PM 89.4°F31.9°C 75.2°F24.0°C 63% 3.0 mph E4.8 kmh E 5.0 mph8.0 kmh 29.81 in1009.5 mb 0.00 in0.0 mm 0.00 in0.0 mm 0.00 in0.0 mm
03:28 PM 89.3°F31.8°C 75.1°F23.9°C 63% 2.0 mph E3.2 kmh E 5.0 mph8.0 kmh 29.81 in1009.5 mb 0.00 in0.0 mm 0.00 in0.0 mm 0.00 in0.0 mm
03:30 PM 89.2°F31.8°C 73.5°F23.1°C 60% 2.0 mph E3.2 kmh E 5.0 mph8.0 kmh 29.81 in1009.5 mb 0.00 in0.0 mm 0.00 in0.0 mm 0.00 in0.0 mm
03:32 PM 89.2°F31.8°C 74.0°F23.3°C 61% Calm Calm 2.0 mph3.2 kmh 29.81 in1009.5 mb 0.00 in0.0 mm 0.00 in0.0 mm 0.00 in0.0 mm
03:34 PM 89.3°F31.8°C 74.1°F23.4°C 61% 1.0 mph E1.6 kmh E 2.0 mph3.2 kmh 29.81 in1009.5 mb 0.00 in0.0 mm 0.00 in0.0 mm 0.00 in0.0 mm
03:35 PM 89.3°F31.8°C 73.1°F22.8°C 59% Calm Calm 2.0 mph3.2 kmh 29.81 in1009.5 mb 0.00 in0.0 mm 0.00 in0.0 mm 0.00 in0.0 mm
03:38 PM 89.4°F31.9°C 74.2°F23.4°C 61% 1.0 mph E1.6 kmh E 3.0 mph4.8 kmh 29.81 in1009.5 mb 0.00 in0.0 mm 0.00 in0.0 mm 0.00 in0.0 mm
03:40 PM 89.4°F31.9°C 75.2°F24.0°C 63% 3.0 mph SE4.8 kmh SE 4.0 mph6.4 kmh 29.80 in1009.1 mb 0.00 in0.0 mm 0.00 in0.0 mm 0.00 in0.0 mm
03:42 PM 89.1°F31.7°C 74.9°F23.8°C 63% 3.0 mph SE4.8 kmh SE 4.0 mph6.4 kmh 29.80 in1009.1 mb 0.00 in0.0 mm 0.00 in0.0 mm 0.00 in0.0 mm
03:44 PM 89.0°F31.7°C 75.3°F24.1°C 64% 1.0 mph SE1.6 kmh SE 4.0 mph6.4 kmh 29.80 in1009.1 mb 0.00 in0.0 mm 0.00 in0.0 mm 0.00 in0.0 mm
03:46 PM 88.9°F31.6°C 74.7°F23.7°C 63% 1.0 mph SE1.6 kmh SE 4.0 mph6.4 kmh 29.81 in1009.5 mb 0.00 in0.0 mm 0.00 in0.0 mm 0.00 in0.0 mm
03:48 PM 88.8°F31.6°C 75.1°F23.9°C 64% 1.0 mph SE1.6 kmh SE 4.0 mph6.4 kmh 29.80 in1009.1 mb 0.00 in0.0 mm 0.00 in0.0 mm 0.00 in0.0 mm
03:50 PM 88.6°F31.4°C 74.4°F23.6°C 63% 1.0 mph SE1.6 kmh SE 5.0 mph8.0 kmh 29.80 in1009.1 mb 0.00 in0.0 mm 0.00 in0.0 mm 0.00 in0.0 mm
03:52 PM 88.6°F31.4°C 74.4°F23.6°C 63% 1.0 mph SE1.6 kmh SE 5.0 mph8.0 kmh 29.79 in1008.8 mb 0.00 in0.0 mm 0.00 in0.0 mm 0.00 in0.0 mm
03:54 PM 88.6°F31.4°C 74.4°F23.6°C 63% 2.0 mph SE3.2 kmh SE 5.0 mph8.0 kmh 29.80 in1009.1 mb 0.00 in0.0 mm 0.00 in0.0 mm 0.00 in0.0 mm
03:56 PM 88.5°F31.4°C 74.8°F23.8°C 64% 3.0 mph SE4.8 kmh SE 5.0 mph8.0 kmh 29.80 in1009.1 mb 0.00 in0.0 mm 0.00 in0.0 mm 0.00 in0.0 mm
03:58 PM 88.4°F31.3°C 75.1°F23.9°C 65% 3.0 mph SE4.8 kmh SE 5.0 mph8.0 kmh 29.80 in1009.1 mb 0.00 in0.0 mm 0.00 in0.0 mm 0.00 in0.0 mm
04:00 PM 88.3°F31.3°C 74.6°F23.7°C 64% 5.0 mph ESE8.0 kmh ESE 5.0 mph8.0 kmh 29.79 in1008.8 mb 0.00 in0.0 mm 0.00 in0.0 mm 0.00 in0.0 mm
04:02 PM 88.2°F31.2°C 74.5°F23.6°C 64% 4.0 mph ENE6.4 kmh ENE 8.0 mph12.9 kmh 29.79 in1008.8 mb 0.00 in0.0 mm 0.00 in0.0 mm 0.00 in0.0 mm
04:04 PM 88.2°F31.2°C 75.0°F23.9°C 65% 1.0 mph E1.6 kmh E 8.0 mph12.9 kmh 29.79 in1008.8 mb 0.00 in0.0 mm 0.00 in0.0 mm 0.00 in0.0 mm
04:06 PM 88.1°F31.2°C 74.4°F23.6°C 64% 2.0 mph ENE3.2 kmh ENE 8.0 mph12.9 kmh 29.80 in1009.1 mb 0.00 in0.0 mm 0.00 in0.0 mm 0.00 in0.0 mm
04:08 PM 88.0°F31.1°C 74.8°F23.8°C 65% 4.0 mph ENE6.4 kmh ENE 8.0 mph12.9 kmh 29.80 in1009.1 mb 0.00 in0.0 mm 0.00 in0.0 mm 0.00 in0.0 mm
04:10 PM 88.0°F31.1°C 74.8°F23.8°C 65% 4.0 mph ENE6.4 kmh ENE 8.0 mph12.9 kmh 29.80 in1009.1 mb 0.00 in0.0 mm 0.00 in0.0 mm 0.00 in0.0 mm
04:12 PM 87.9°F31.1°C 75.1°F23.9°C 66% 3.0 mph ENE4.8 kmh ENE 8.0 mph12.9 kmh 29.79 in1008.8 mb 0.00 in0.0 mm 0.00 in0.0 mm 0.00 in0.0 mm
04:14 PM 87.7°F30.9°C 74.5°F23.6°C 65% 4.0 mph E6.4 kmh E 8.0 mph12.9 kmh 29.79 in1008.8 mb 0.00 in0.0 mm 0.00 in0.0 mm 0.00 in0.0 mm
04:16 PM 87.6°F30.9°C 74.4°F23.6°C 65% 5.0 mph E8.0 kmh E 8.0 mph12.9 kmh 29.79 in1008.8 mb 0.00 in0.0 mm 0.00 in0.0 mm 0.00 in0.0 mm
04:18 PM 87.4°F30.8°C 74.2°F23.4°C 65% 3.0 mph E4.8 kmh E 8.0 mph12.9 kmh 29.79 in1008.8 mb 0.00 in0.0 mm 0.00 in0.0 mm 0.00 in0.0 mm
04:20 PM 87.3°F30.7°C 74.6°F23.7°C 66% 4.0 mph E6.4 kmh E 8.0 mph12.9 kmh 29.79 in1008.8 mb 0.00 in0.0 mm 0.00 in0.0 mm 0.00 in0.0 mm
04:22 PM 87.2°F30.7°C 74.0°F23.3°C 65% 4.0 mph ENE6.4 kmh ENE 8.0 mph12.9 kmh 29.78 in1008.5 mb 0.00 in0.0 mm 0.00 in0.0 mm 0.00 in0.0 mm
04:24 PM 87.2°F30.7°C 74.0°F23.3°C 65% 3.0 mph ENE4.8 kmh ENE 8.0 mph12.9 kmh 29.78 in1008.5 mb 0.00 in0.0 mm 0.00 in0.0 mm 0.00 in0.0 mm
04:26 PM 87.2°F30.7°C 74.0°F23.3°C 65% 4.0 mph ENE6.4 kmh ENE 8.0 mph12.9 kmh 29.78 in1008.5 mb 0.00 in0.0 mm 0.00 in0.0 mm 0.00 in0.0 mm
04:28 PM 87.1°F30.6°C 73.9°F23.3°C 65% 1.0 mph ENE1.6 kmh ENE 8.0 mph12.9 kmh 29.79 in1008.8 mb 0.00 in0.0 mm 0.00 in0.0 mm 0.00 in0.0 mm
04:30 PM 87.1°F30.6°C 73.9°F23.3°C 65% 2.0 mph ENE3.2 kmh ENE 2.0 mph3.2 kmh 29.80 in1009.1 mb 0.00 in0.0 mm 0.00 in0.0 mm 0.00 in0.0 mm
04:32 PM 87.0°F30.6°C 73.8°F23.2°C 65% 1.0 mph ENE1.6 kmh ENE 2.0 mph3.2 kmh 29.80 in1009.1 mb 0.00 in0.0 mm 0.00 in0.0 mm 0.00 in0.0 mm
04:34 PM 87.0°F30.6°C 74.3°F23.5°C 66% 2.0 mph ENE3.2 kmh ENE 4.0 mph6.4 kmh 29.79 in1008.8 mb 0.00 in0.0 mm 0.00 in0.0 mm 0.00 in0.0 mm
04:36 PM 87.0°F30.6°C 73.8°F23.2°C 65% 3.0 mph ENE4.8 kmh ENE 6.0 mph9.7 kmh 29.78 in1008.5 mb 0.00 in0.0 mm 0.00 in0.0 mm 0.00 in0.0 mm
04:38 PM 86.9°F30.5°C 74.2°F23.4°C 66% 2.0 mph ENE3.2 kmh ENE 6.0 mph9.7 kmh 29.78 in1008.5 mb 0.00 in0.0 mm 0.00 in0.0 mm 0.00 in0.0 mm
04:40 PM 86.9°F30.5°C 74.2°F23.4°C 66% 2.0 mph ENE3.2 kmh ENE 6.0 mph9.7 kmh 29.78 in1008.5 mb 0.00 in0.0 mm 0.00 in0.0 mm 0.00 in0.0 mm
04:42 PM 86.9°F30.5°C 74.2°F23.4°C 66% 2.0 mph ENE3.2 kmh ENE 6.0 mph9.7 kmh 29.78 in1008.5 mb 0.00 in0.0 mm 0.00 in0.0 mm 0.00 in0.0 mm
04:44 PM 86.9°F30.5°C 74.2°F23.4°C 66% 3.0 mph ENE4.8 kmh ENE 6.0 mph9.7 kmh 29.78 in1008.5 mb 0.00 in0.0 mm 0.00 in0.0 mm 0.00 in0.0 mm
04:46 PM 86.8°F30.4°C 74.1°F23.4°C 66% 3.0 mph ENE4.8 kmh ENE 6.0 mph9.7 kmh 29.78 in1008.5 mb 0.00 in0.0 mm 0.00 in0.0 mm 0.00 in0.0 mm
04:48 PM 86.7°F30.4°C 74.0°F23.3°C 66% 3.0 mph ENE4.8 kmh ENE 6.0 mph9.7 kmh 29.77 in1008.1 mb 0.00 in0.0 mm 0.00 in0.0 mm 0.00 in0.0 mm
04:50 PM 86.7°F30.4°C 74.0°F23.3°C 66% 3.0 mph ENE4.8 kmh ENE 6.0 mph9.7 kmh 29.78 in1008.5 mb 0.00 in0.0 mm 0.00 in0.0 mm 0.00 in0.0 mm
04:52 PM 86.6°F30.3°C 73.9°F23.3°C 66% 3.0 mph ENE4.8 kmh ENE 6.0 mph9.7 kmh 29.78 in1008.5 mb 0.00 in0.0 mm 0.00 in0.0 mm 0.00 in0.0 mm
04:54 PM 86.6°F30.3°C 73.9°F23.3°C 66% 2.0 mph ENE3.2 kmh ENE 6.0 mph9.7 kmh 29.78 in1008.5 mb 0.00 in0.0 mm 0.00 in0.0 mm 0.00 in0.0 mm
04:56 PM 86.6°F30.3°C 73.4°F23.0°C 65% 1.0 mph ENE1.6 kmh ENE 6.0 mph9.7 kmh 29.78 in1008.5 mb 0.00 in0.0 mm 0.00 in0.0 mm 0.00 in0.0 mm
04:58 PM 86.7°F30.4°C 74.0°F23.3°C 66% 2.0 mph ENE3.2 kmh ENE 6.0 mph9.7 kmh 29.78 in1008.5 mb 0.00 in0.0 mm 0.00 in0.0 mm 0.00 in0.0 mm
05:00 PM 86.7°F30.4°C 74.0°F23.3°C 66% 1.0 mph ENE1.6 kmh ENE 1.0 mph1.6 kmh 29.78 in1008.5 mb 0.00 in0.0 mm 0.00 in0.0 mm 0.00 in0.0 mm
05:02 PM 86.7°F30.4°C 74.4°F23.6°C 67% 1.0 mph ENE1.6 kmh ENE 1.0 mph1.6 kmh 29.77 in1008.1 mb 0.00 in0.0 mm 0.00 in0.0 mm 0.00 in0.0 mm
05:04 PM 86.7°F30.4°C 74.0°F23.3°C 66% 1.0 mph ENE1.6 kmh ENE 2.0 mph3.2 kmh 29.77 in1008.1 mb 0.00 in0.0 mm 0.00 in0.0 mm 0.00 in0.0 mm
05:06 PM 86.7°F30.4°C 74.4°F23.6°C 67% 2.0 mph ENE3.2 kmh ENE 2.0 mph3.2 kmh 29.77 in1008.1 mb 0.00 in0.0 mm 0.00 in0.0 mm 0.00 in0.0 mm
05:08 PM 86.7°F30.4°C 74.4°F23.6°C 67% 2.0 mph E3.2 kmh E 3.0 mph4.8 kmh 29.77 in1008.1 mb 0.00 in0.0 mm 0.00 in0.0 mm 0.00 in0.0 mm
05:10 PM 86.7°F30.4°C 74.4°F23.6°C 67% 2.0 mph E3.2 kmh E 3.0 mph4.8 kmh 29.77 in1008.1 mb 0.00 in0.0 mm 0.00 in0.0 mm 0.00 in0.0 mm
05:12 PM 86.6°F30.3°C 75.2°F24.0°C 69% 4.0 mph SW6.4 kmh SW 5.0 mph8.0 kmh 29.77 in1008.1 mb 0.00 in0.0 mm 0.00 in0.0 mm 0.00 in0.0 mm
05:14 PM 86.4°F30.2°C 74.2°F23.4°C 67% 4.0 mph S6.4 kmh S 13.0 mph20.9 kmh 29.77 in1008.1 mb 0.00 in0.0 mm 0.00 in0.0 mm 0.00 in0.0 mm
05:16 PM 86.1°F30.1°C 73.9°F23.3°C 67% 10.0 mph SW16.1 kmh SW 13.0 mph20.9 kmh 29.77 in1008.1 mb 0.00 in0.0 mm 0.00 in0.0 mm 0.00 in0.0 mm
05:18 PM 85.6°F29.8°C 73.8°F23.2°C 68% 3.0 mph S4.8 kmh S 13.0 mph20.9 kmh 29.78 in1008.5 mb 0.00 in0.0 mm 0.00 in0.0 mm 0.00 in0.0 mm
05:20 PM 84.9°F29.4°C 72.7°F22.6°C 67% 4.0 mph SSW6.4 kmh SSW 13.0 mph20.9 kmh 29.78 in1008.5 mb 0.00 in0.0 mm 0.00 in0.0 mm 0.00 in0.0 mm
05:22 PM 84.1°F28.9°C 72.4°F22.4°C 68% 4.0 mph SW6.4 kmh SW 13.0 mph20.9 kmh 29.78 in1008.5 mb 0.00 in0.0 mm 0.00 in0.0 mm 0.00 in0.0 mm
05:24 PM 83.4°F28.6°C 72.6°F22.6°C 70% 6.0 mph W9.7 kmh W 13.0 mph20.9 kmh 29.80 in1009.1 mb 0.00 in0.0 mm 0.00 in0.0 mm 0.00 in0.0 mm
05:26 PM 82.8°F28.2°C 72.9°F22.7°C 72% 16.0 mph W25.7 kmh W 16.0 mph25.7 kmh 29.81 in1009.5 mb 0.00 in0.0 mm 0.00 in0.0 mm 0.00 in0.0 mm
05:28 PM 81.8°F27.7°C 72.7°F22.6°C 74% 11.0 mph SW17.7 kmh SW 16.0 mph25.7 kmh 29.81 in1009.5 mb 0.00 in0.0 mm 0.00 in0.0 mm 0.00 in0.0 mm
05:30 PM 81.0°F27.2°C 73.5°F23.1°C 78% 13.0 mph WNW20.9 kmh WNW 13.0 mph20.9 kmh 29.82 in1009.8 mb 0.00 in0.0 mm 0.00 in0.0 mm 0.00 in0.0 mm
05:32 PM 80.5°F26.9°C 73.4°F23.0°C 79% 2.0 mph W3.2 kmh W 13.0 mph20.9 kmh 29.81 in1009.5 mb 0.00 in0.0 mm 0.00 in0.0 mm 0.00 in0.0 mm
05:34 PM 80.0°F26.7°C 73.3°F22.9°C 80% 11.0 mph W17.7 kmh W 15.0 mph24.1 kmh 29.81 in1009.5 mb 0.00 in0.0 mm 0.00 in0.0 mm 0.00 in0.0 mm
05:36 PM 79.4°F26.3°C 72.3°F22.4°C 79% 13.0 mph WSW20.9 kmh WSW 17.0 mph27.4 kmh 29.80 in1009.1 mb 0.00 in0.0 mm 0.00 in0.0 mm 0.00 in0.0 mm
05:38 PM 78.6°F25.9°C 71.6°F22.0°C 79% 18.0 mph SW29.0 kmh SW 19.0 mph30.6 kmh 29.80 in1009.1 mb 0.00 in0.0 mm 0.00 in0.0 mm 0.00 in0.0 mm
05:40 PM 77.9°F25.5°C 70.9°F21.6°C 79% 11.0 mph SW17.7 kmh SW 19.0 mph30.6 kmh 29.80 in1009.1 mb 0.00 in0.0 mm 0.00 in0.0 mm 0.00 in0.0 mm
05:42 PM 77.3°F25.2°C 71.0°F21.7°C 81% 12.0 mph SW19.3 kmh SW 19.0 mph30.6 kmh 29.80 in1009.1 mb 0.00 in0.0 mm 0.00 in0.0 mm 0.00 in0.0 mm
05:44 PM 76.9°F24.9°C 71.0°F21.7°C 82% 4.0 mph SW6.4 kmh SW 19.0 mph30.6 kmh 29.79 in1008.8 mb 0.00 in0.0 mm 0.00 in0.0 mm 0.00 in0.0 mm
05:46 PM 76.5°F24.7°C 71.0°F21.7°C 83% 5.0 mph SW8.0 kmh SW 19.0 mph30.6 kmh 29.79 in1008.8 mb 0.00 in0.0 mm 0.00 in0.0 mm 0.00 in0.0 mm
05:48 PM 76.3°F24.6°C 71.1°F21.7°C 84% 4.0 mph SW6.4 kmh SW 19.0 mph30.6 kmh 29.80 in1009.1 mb 0.00 in0.0 mm 0.00 in0.0 mm 0.00 in0.0 mm
05:50 PM 76.1°F24.5°C 70.9°F21.6°C 84% 6.0 mph SW9.7 kmh SW 19.0 mph30.6 kmh 29.80 in1009.1 mb 0.00 in0.0 mm 0.00 in0.0 mm 0.00 in0.0 mm
05:52 PM 75.9°F24.4°C 71.1°F21.7°C 85% 6.0 mph SW9.7 kmh SW 19.0 mph30.6 kmh 29.80 in1009.1 mb 0.00 in0.0 mm 0.00 in0.0 mm 0.00 in0.0 mm
05:54 PM 75.7°F24.3°C 71.2°F21.8°C 86% 7.0 mph SW11.3 kmh SW 19.0 mph30.6 kmh 29.79 in1008.8 mb 0.00 in0.0 mm 0.00 in0.0 mm 0.00 in0.0 mm
05:56 PM 75.4°F24.1°C 70.6°F21.4°C 85% 1.0 mph S1.6 kmh S 19.0 mph30.6 kmh 29.80 in1009.1 mb 0.00 in0.0 mm 0.00 in0.0 mm 0.00 in0.0 mm
05:58 PM 75.2°F24.0°C 70.7°F21.5°C 86% 3.0 mph SW4.8 kmh SW 19.0 mph30.6 kmh 29.80 in1009.1 mb 0.00 in0.0 mm 0.00 in0.0 mm 0.00 in0.0 mm
06:00 PM 75.0°F23.9°C 70.2°F21.2°C 85% 2.0 mph SW3.2 kmh SW 2.0 mph3.2 kmh 29.81 in1009.5 mb 0.00 in0.0 mm 0.00 in0.0 mm 0.00 in0.0 mm
06:02 PM 74.9°F23.8°C 70.4°F21.3°C 86% 3.0 mph SW4.8 kmh SW 4.0 mph6.4 kmh 29.81 in1009.5 mb 0.00 in0.0 mm 0.00 in0.0 mm 0.00 in0.0 mm
06:04 PM 74.9°F23.8°C 70.4°F21.3°C 86% 3.0 mph W4.8 kmh W 4.0 mph6.4 kmh 29.81 in1009.5 mb 0.00 in0.0 mm 0.00 in0.0 mm 0.00 in0.0 mm
06:06 PM 74.9°F23.8°C 70.4°F21.3°C 86% 5.0 mph NNW8.0 kmh NNW 6.0 mph9.7 kmh 29.82 in1009.8 mb 0.00 in0.0 mm 0.00 in0.0 mm 0.00 in0.0 mm
06:08 PM 75.0°F23.9°C 70.9°F21.6°C 87% 8.0 mph N12.9 kmh N 12.0 mph19.3 kmh 29.82 in1009.8 mb 0.00 in0.0 mm 0.00 in0.0 mm 0.00 in0.0 mm
06:10 PM 75.1°F23.9°C 71.0°F21.7°C 87% 13.0 mph NNW20.9 kmh NNW 15.0 mph24.1 kmh 29.82 in1009.8 mb 0.00 in0.0 mm 0.00 in0.0 mm 0.00 in0.0 mm
06:12 PM 75.2°F24.0°C 71.1°F21.7°C 87% 5.0 mph N8.0 kmh N 15.0 mph24.1 kmh 29.82 in1009.8 mb 0.01 in0.3 mm 0.30 in7.6 mm 0.01 in0.3 mm
06:14 PM 75.3°F24.1°C 71.5°F21.9°C 88% 3.0 mph N4.8 kmh N 15.0 mph24.1 kmh 29.82 in1009.8 mb 0.01 in0.3 mm 0.00 in0.0 mm 0.01 in0.3 mm
06:16 PM 75.5°F24.2°C 71.7°F22.1°C 88% 5.0 mph NW8.0 kmh NW 15.0 mph24.1 kmh 29.82 in1009.8 mb 0.01 in0.3 mm 0.00 in0.0 mm 0.01 in0.3 mm
06:18 PM 75.7°F24.3°C 71.9°F22.2°C 88% 4.0 mph NW6.4 kmh NW 15.0 mph24.1 kmh 29.83 in1010.2 mb 0.01 in0.3 mm 0.00 in0.0 mm 0.01 in0.3 mm
06:20 PM 75.8°F24.3°C 72.0°F22.2°C 88% 6.0 mph WNW9.7 kmh WNW 15.0 mph24.1 kmh 29.84 in1010.5 mb 0.01 in0.3 mm 0.00 in0.0 mm 0.01 in0.3 mm
06:22 PM 76.0°F24.4°C 71.9°F22.2°C 87% 11.0 mph NW17.7 kmh NW 15.0 mph24.1 kmh 29.84 in1010.5 mb 0.01 in0.3 mm 0.00 in0.0 mm 0.01 in0.3 mm
06:24 PM 76.1°F24.5°C 72.0°F22.2°C 87% 6.0 mph NNW9.7 kmh NNW 15.0 mph24.1 kmh 29.83 in1010.2 mb 0.01 in0.3 mm 0.00 in0.0 mm 0.01 in0.3 mm
06:26 PM 76.0°F24.4°C 71.5°F21.9°C 86% 2.0 mph NE3.2 kmh NE 15.0 mph24.1 kmh 29.83 in1010.2 mb 0.01 in0.3 mm 0.00 in0.0 mm 0.01 in0.3 mm
06:28 PM 76.0°F24.4°C 71.5°F21.9°C 86% 4.0 mph NE6.4 kmh NE 15.0 mph24.1 kmh 29.83 in1010.2 mb 0.01 in0.3 mm 0.00 in0.0 mm 0.01 in0.3 mm
06:30 PM 75.9°F24.4°C 71.8°F22.1°C 87% 3.0 mph N4.8 kmh N 15.0 mph24.1 kmh 29.84 in1010.5 mb 0.01 in0.3 mm 0.00 in0.0 mm 0.01 in0.3 mm
06:32 PM 75.8°F24.3°C 71.7°F22.1°C 87% 1.0 mph N1.6 kmh N 9.0 mph14.5 kmh 29.84 in1010.5 mb 0.01 in0.3 mm 0.00 in0.0 mm 0.01 in0.3 mm
06:34 PM 75.7°F24.3°C 71.9°F22.2°C 88% 9.0 mph ENE14.5 kmh ENE 14.0 mph22.5 kmh 29.84 in1010.5 mb 0.01 in0.3 mm 0.00 in0.0 mm 0.01 in0.3 mm
06:36 PM 75.6°F24.2°C 71.8°F22.1°C 88% 12.0 mph NE19.3 kmh NE 14.0 mph22.5 kmh 29.84 in1010.5 mb 0.01 in0.3 mm 0.00 in0.0 mm 0.01 in0.3 mm
06:38 PM 75.6°F24.2°C 71.8°F22.1°C 88% 2.0 mph NE3.2 kmh NE 14.0 mph22.5 kmh 29.84 in1010.5 mb 0.01 in0.3 mm 0.00 in0.0 mm 0.01 in0.3 mm
06:40 PM 75.5°F24.2°C 72.0°F22.2°C 89% 10.0 mph NNE16.1 kmh NNE 14.0 mph22.5 kmh 29.84 in1010.5 mb 0.01 in0.3 mm 0.00 in0.0 mm 0.01 in0.3 mm
06:42 PM 75.4°F24.1°C 71.6°F22.0°C 88% 8.0 mph E12.9 kmh E 15.0 mph24.1 kmh 29.85 in1010.8 mb 0.01 in0.3 mm 0.00 in0.0 mm 0.01 in0.3 mm
06:44 PM 75.3°F24.1°C 71.5°F21.9°C 88% 10.0 mph E16.1 kmh E 16.0 mph25.7 kmh 29.86 in1011.2 mb 0.01 in0.3 mm 0.00 in0.0 mm 0.01 in0.3 mm
06:46 PM 75.2°F24.0°C 71.1°F21.7°C 87% 14.0 mph NE22.5 kmh NE 21.0 mph33.8 kmh 29.86 in1011.2 mb 0.01 in0.3 mm 0.00 in0.0 mm 0.01 in0.3 mm
06:48 PM 75.0°F23.9°C 70.5°F21.4°C 86% 14.0 mph ENE22.5 kmh ENE 21.0 mph33.8 kmh 29.86 in1011.2 mb 0.01 in0.3 mm 0.00 in0.0 mm 0.01 in0.3 mm
06:50 PM 74.7°F23.7°C 69.9°F21.1°C 85% 5.0 mph NE8.0 kmh NE 22.0 mph35.4 kmh 29.86 in1011.2 mb 0.01 in0.3 mm 0.00 in0.0 mm 0.01 in0.3 mm
06:52 PM 74.4°F23.6°C 69.6°F20.9°C 85% 9.0 mph E14.5 kmh E 25.0 mph40.2 kmh 29.86 in1011.2 mb 0.01 in0.3 mm 0.00 in0.0 mm 0.01 in0.3 mm
06:54 PM 74.0°F23.3°C 69.2°F20.7°C 85% 15.0 mph ENE24.1 kmh ENE 25.0 mph40.2 kmh 29.86 in1011.2 mb 0.01 in0.3 mm 0.00 in0.0 mm 0.01 in0.3 mm
06:56 PM 73.6°F23.1°C 68.8°F20.4°C 85% 20.0 mph E32.2 kmh E 25.0 mph40.2 kmh 29.86 in1011.2 mb 0.01 in0.3 mm 0.00 in0.0 mm 0.01 in0.3 mm
06:58 PM 73.3°F22.9°C 68.9°F20.5°C 86% 10.0 mph ENE16.1 kmh ENE 25.0 mph40.2 kmh 29.86 in1011.2 mb 0.01 in0.3 mm 0.00 in0.0 mm 0.01 in0.3 mm
07:00 PM 73.0°F22.8°C 67.9°F19.9°C 84% 11.0 mph ENE17.7 kmh ENE 11.0 mph17.7 kmh 29.85 in1010.8 mb 0.01 in0.3 mm 0.00 in0.0 mm 0.01 in0.3 mm
07:02 PM 72.9°F22.7°C 67.8°F19.9°C 84% 16.0 mph E25.7 kmh E 26.0 mph41.8 kmh 29.86 in1011.2 mb 0.01 in0.3 mm 0.00 in0.0 mm 0.01 in0.3 mm
07:04 PM 72.8°F22.7°C 67.3°F19.6°C 83% 7.0 mph NE11.3 kmh NE 26.0 mph41.8 kmh 29.85 in1010.8 mb 0.01 in0.3 mm 0.00 in0.0 mm 0.01 in0.3 mm
07:06 PM 72.7°F22.6°C 66.9°F19.4°C 82% 4.0 mph NE6.4 kmh NE 26.0 mph41.8 kmh 29.86 in1011.2 mb 0.01 in0.3 mm 0.00 in0.0 mm 0.01 in0.3 mm
07:08 PM 72.6°F22.6°C 66.8°F19.3°C 82% 5.0 mph NE8.0 kmh NE 26.0 mph41.8 kmh 29.85 in1010.8 mb 0.01 in0.3 mm 0.00 in0.0 mm 0.01 in0.3 mm
07:10 PM 72.6°F22.6°C 66.8°F19.3°C 82% 9.0 mph ENE14.5 kmh ENE 26.0 mph41.8 kmh 29.85 in1010.8 mb 0.01 in0.3 mm 0.00 in0.0 mm 0.01 in0.3 mm
07:12 PM 72.6°F22.6°C 66.4°F19.1°C 81% 9.0 mph E14.5 kmh E 26.0 mph41.8 kmh 29.85 in1010.8 mb 0.01 in0.3 mm 0.00 in0.0 mm 0.01 in0.3 mm
07:14 PM 72.5°F22.5°C 65.6°F18.7°C 79% 11.0 mph NE17.7 kmh NE 26.0 mph41.8 kmh 29.85 in1010.8 mb 0.01 in0.3 mm 0.00 in0.0 mm 0.01 in0.3 mm
07:16 PM 72.6°F22.6°C 65.7°F18.7°C 79% 15.0 mph NE24.1 kmh NE 26.0 mph41.8 kmh 29.85 in1010.8 mb 0.01 in0.3 mm 0.00 in0.0 mm 0.01 in0.3 mm
07:18 PM 72.6°F22.6°C 65.4°F18.6°C 78% 11.0 mph NE17.7 kmh NE 26.0 mph41.8 kmh 29.85 in1010.8 mb 0.01 in0.3 mm 0.00 in0.0 mm 0.01 in0.3 mm
07:20 PM 72.7°F22.6°C 65.8°F18.8°C 79% 9.0 mph N14.5 kmh N 26.0 mph41.8 kmh 29.85 in1010.8 mb 0.01 in0.3 mm 0.00 in0.0 mm 0.01 in0.3 mm
07:22 PM 72.8°F22.7°C 65.9°F18.8°C 79% 9.0 mph ENE14.5 kmh ENE 26.0 mph41.8 kmh 29.85 in1010.8 mb 0.01 in0.3 mm 0.00 in0.0 mm 0.01 in0.3 mm
07:24 PM 72.9°F22.7°C 66.0°F18.9°C 79% 14.0 mph NE22.5 kmh NE 26.0 mph41.8 kmh 29.85 in1010.8 mb 0.01 in0.3 mm 0.00 in0.0 mm 0.01 in0.3 mm
07:26 PM 72.9°F22.7°C 66.0°F18.9°C 79% 14.0 mph NNW22.5 kmh NNW 26.0 mph41.8 kmh 29.85 in1010.8 mb 0.01 in0.3 mm 0.00 in0.0 mm 0.01 in0.3 mm
07:28 PM 72.9°F22.7°C 66.4°F19.1°C 80% 5.0 mph NE8.0 kmh NE 26.0 mph41.8 kmh 29.85 in1010.8 mb 0.01 in0.3 mm 0.00 in0.0 mm 0.01 in0.3 mm
07:30 PM 72.8°F22.7°C 65.9°F18.8°C 79% 15.0 mph NE24.1 kmh NE 26.0 mph41.8 kmh 29.84 in1010.5 mb 0.01 in0.3 mm 0.00 in0.0 mm 0.01 in0.3 mm
07:32 PM 73.0°F22.8°C 65.7°F18.7°C 78% 12.0 mph E19.3 kmh E 23.0 mph37.0 kmh 29.84 in1010.5 mb 0.00 in0.0 mm 0.00 in0.0 mm 0.01 in0.3 mm
07:34 PM 73.1°F22.8°C 65.5°F18.6°C 77% 13.0 mph E20.9 kmh E 23.0 mph37.0 kmh 29.83 in1010.2 mb 0.00 in0.0 mm 0.00 in0.0 mm 0.01 in0.3 mm
07:36 PM 73.2°F22.9°C 65.6°F18.7°C 77% 14.0 mph E22.5 kmh E 23.0 mph37.0 kmh 29.83 in1010.2 mb 0.00 in0.0 mm 0.00 in0.0 mm 0.01 in0.3 mm
07:38 PM 73.3°F22.9°C 65.3°F18.5°C 76% 14.0 mph NE22.5 kmh NE 23.0 mph37.0 kmh 29.83 in1010.2 mb 0.00 in0.0 mm 0.00 in0.0 mm 0.01 in0.3 mm
07:40 PM 73.5°F23.1°C 65.5°F18.6°C 76% 14.0 mph ESE22.5 kmh ESE 23.0 mph37.0 kmh 29.83 in1010.2 mb 0.00 in0.0 mm 0.00 in0.0 mm 0.01 in0.3 mm
07:42 PM 73.5°F23.1°C 65.5°F18.6°C 76% 7.0 mph E11.3 kmh E 23.0 mph37.0 kmh 29.83 in1010.2 mb 0.00 in0.0 mm 0.00 in0.0 mm 0.01 in0.3 mm
07:44 PM 73.5°F23.1°C 65.5°F18.6°C 76% 6.0 mph ENE9.7 kmh ENE 23.0 mph37.0 kmh 29.83 in1010.2 mb 0.00 in0.0 mm 0.00 in0.0 mm 0.01 in0.3 mm
07:46 PM 73.5°F23.1°C 65.1°F18.4°C 75% 7.0 mph ESE11.3 kmh ESE 23.0 mph37.0 kmh 29.83 in1010.2 mb 0.00 in0.0 mm 0.00 in0.0 mm 0.01 in0.3 mm
07:48 PM 73.7°F23.2°C 64.9°F18.3°C 74% 11.0 mph ENE17.7 kmh ENE 23.0 mph37.0 kmh 29.83 in1010.2 mb 0.00 in0.0 mm 0.00 in0.0 mm 0.01 in0.3 mm
07:50 PM 73.9°F23.3°C 64.7°F18.2°C 73% 12.0 mph SSE19.3 kmh SSE 23.0 mph37.0 kmh 29.83 in1010.2 mb 0.00 in0.0 mm 0.00 in0.0 mm 0.01 in0.3 mm
07:52 PM 74.1°F23.4°C 64.5°F18.1°C 72% 15.0 mph SSE24.1 kmh SSE 23.0 mph37.0 kmh 29.83 in1010.2 mb 0.00 in0.0 mm 0.00 in0.0 mm 0.01 in0.3 mm
07:54 PM 74.3°F23.5°C 64.3°F17.9°C 71% 3.0 mph SE4.8 kmh SE 23.0 mph37.0 kmh 29.83 in1010.2 mb 0.00 in0.0 mm 0.00 in0.0 mm 0.01 in0.3 mm
07:56 PM 74.5°F23.6°C 64.5°F18.1°C 71% 5.0 mph SSE8.0 kmh SSE 23.0 mph37.0 kmh 29.83 in1010.2 mb 0.00 in0.0 mm 0.00 in0.0 mm 0.01 in0.3 mm
07:58 PM 74.5°F23.6°C 64.5°F18.1°C 71% 9.0 mph E14.5 kmh E 23.0 mph37.0 kmh 29.83 in1010.2 mb 0.00 in0.0 mm 0.00 in0.0 mm 0.01 in0.3 mm
08:00 PM 74.6°F23.7°C 64.6°F18.1°C 71% 5.0 mph ESE8.0 kmh ESE 23.0 mph37.0 kmh 29.83 in1010.2 mb 0.00 in0.0 mm 0.00 in0.0 mm 0.01 in0.3 mm
08:02 PM 74.5°F23.6°C 64.5°F18.1°C 71% 7.0 mph E11.3 kmh E 13.0 mph20.9 kmh 29.83 in1010.2 mb 0.00 in0.0 mm 0.00 in0.0 mm 0.01 in0.3 mm
08:04 PM 74.6°F23.7°C 64.6°F18.1°C 71% 5.0 mph SE8.0 kmh SE 13.0 mph20.9 kmh 29.83 in1010.2 mb 0.00 in0.0 mm 0.00 in0.0 mm 0.01 in0.3 mm
08:06 PM 74.6°F23.7°C 64.6°F18.1°C 71% 4.0 mph SSE6.4 kmh SSE 13.0 mph20.9 kmh 29.82 in1009.8 mb 0.00 in0.0 mm 0.00 in0.0 mm 0.01 in0.3 mm
08:08 PM 74.6°F23.7°C 64.6°F18.1°C 71% 4.0 mph SE6.4 kmh SE 13.0 mph20.9 kmh 29.82 in1009.8 mb 0.00 in0.0 mm 0.00 in0.0 mm 0.01 in0.3 mm
08:10 PM 74.7°F23.7°C 64.7°F18.2°C 71% 10.0 mph ENE16.1 kmh ENE 13.0 mph20.9 kmh 29.82 in1009.8 mb 0.00 in0.0 mm 0.00 in0.0 mm 0.01 in0.3 mm
08:12 PM 74.9°F23.8°C 64.9°F18.3°C 71% 4.0 mph S6.4 kmh S 13.0 mph20.9 kmh 29.82 in1009.8 mb 0.00 in0.0 mm 0.00 in0.0 mm 0.01 in0.3 mm
08:14 PM 75.0°F23.9°C 64.6°F18.1°C 70% 4.0 mph SE6.4 kmh SE 13.0 mph20.9 kmh 29.82 in1009.8 mb 0.00 in0.0 mm 0.00 in0.0 mm 0.01 in0.3 mm
08:16 PM 75.1°F23.9°C 64.7°F18.2°C 70% 6.0 mph E9.7 kmh E 13.0 mph20.9 kmh 29.81 in1009.5 mb 0.00 in0.0 mm 0.00 in0.0 mm 0.01 in0.3 mm
08:18 PM 75.1°F23.9°C 65.1°F18.4°C 71% 4.0 mph SSE6.4 kmh SSE 13.0 mph20.9 kmh 29.81 in1009.5 mb 0.00 in0.0 mm 0.00 in0.0 mm 0.01 in0.3 mm
08:20 PM 75.1°F23.9°C 65.1°F18.4°C 71% 7.0 mph SE11.3 kmh SE 13.0 mph20.9 kmh 29.81 in1009.5 mb 0.00 in0.0 mm 0.00 in0.0 mm 0.01 in0.3 mm
08:22 PM 75.1°F23.9°C 65.1°F18.4°C 71% 9.0 mph SE14.5 kmh SE 13.0 mph20.9 kmh 29.81 in1009.5 mb 0.00 in0.0 mm 0.00 in0.0 mm 0.01 in0.3 mm
08:24 PM 75.1°F23.9°C 65.1°F18.4°C 71% 6.0 mph S9.7 kmh S 13.0 mph20.9 kmh 29.80 in1009.1 mb 0.00 in0.0 mm 0.00 in0.0 mm 0.01 in0.3 mm
08:26 PM 75.0°F23.9°C 65.4°F18.6°C 72% 6.0 mph SE9.7 kmh SE 13.0 mph20.9 kmh 29.80 in1009.1 mb 0.00 in0.0 mm 0.00 in0.0 mm 0.01 in0.3 mm
08:28 PM 75.0°F23.9°C 65.4°F18.6°C 72% 6.0 mph SSE9.7 kmh SSE 13.0 mph20.9 kmh 29.80 in1009.1 mb 0.00 in0.0 mm 0.00 in0.0 mm 0.01 in0.3 mm
08:30 PM 75.0°F23.9°C 65.4°F18.6°C 72% 10.0 mph SE16.1 kmh SE 10.0 mph16.1 kmh 29.81 in1009.5 mb 0.00 in0.0 mm 0.00 in0.0 mm 0.01 in0.3 mm
08:32 PM 75.1°F23.9°C 65.5°F18.6°C 72% 3.0 mph S4.8 kmh S 10.0 mph16.1 kmh 29.81 in1009.5 mb 0.00 in0.0 mm 0.00 in0.0 mm 0.01 in0.3 mm
08:34 PM 75.0°F23.9°C 65.4°F18.6°C 72% 9.0 mph SE14.5 kmh SE 10.0 mph16.1 kmh 29.81 in1009.5 mb 0.00 in0.0 mm 0.00 in0.0 mm 0.01 in0.3 mm
08:36 PM 75.1°F23.9°C 65.5°F18.6°C 72% 5.0 mph SE8.0 kmh SE 12.0 mph19.3 kmh 29.81 in1009.5 mb 0.00 in0.0 mm 0.00 in0.0 mm 0.01 in0.3 mm
08:38 PM 75.0°F23.9°C 65.8°F18.8°C 73% 4.0 mph SSE6.4 kmh SSE 12.0 mph19.3 kmh 29.81 in1009.5 mb 0.00 in0.0 mm 0.00 in0.0 mm 0.01 in0.3 mm
08:40 PM 74.9°F23.8°C 65.7°F18.7°C 73% 5.0 mph SE8.0 kmh SE 12.0 mph19.3 kmh 29.81 in1009.5 mb 0.00 in0.0 mm 0.00 in0.0 mm 0.01 in0.3 mm
08:42 PM 74.9°F23.8°C 65.7°F18.7°C 73% 4.0 mph ESE6.4 kmh ESE 12.0 mph19.3 kmh 29.82 in1009.8 mb 0.00 in0.0 mm 0.00 in0.0 mm 0.01 in0.3 mm
08:44 PM 74.9°F23.8°C 66.1°F18.9°C 74% 1.0 mph SSE1.6 kmh SSE 12.0 mph19.3 kmh 29.82 in1009.8 mb 0.00 in0.0 mm 0.00 in0.0 mm 0.01 in0.3 mm
08:46 PM 74.8°F23.8°C 66.0°F18.9°C 74% 3.0 mph SE4.8 kmh SE 12.0 mph19.3 kmh 29.82 in1009.8 mb 0.00 in0.0 mm 0.00 in0.0 mm 0.01 in0.3 mm
08:48 PM 74.7°F23.7°C 66.3°F19.1°C 75% 4.0 mph SE6.4 kmh SE 12.0 mph19.3 kmh 29.82 in1009.8 mb 0.00 in0.0 mm 0.00 in0.0 mm 0.01 in0.3 mm
08:50 PM 74.7°F23.7°C 66.3°F19.1°C 75% 1.0 mph ESE1.6 kmh ESE 12.0 mph19.3 kmh 29.82 in1009.8 mb 0.00 in0.0 mm 0.00 in0.0 mm 0.01 in0.3 mm
08:52 PM 74.7°F23.7°C 66.3°F19.1°C 75% 4.0 mph SSE6.4 kmh SSE 12.0 mph19.3 kmh 29.82 in1009.8 mb 0.00 in0.0 mm 0.00 in0.0 mm 0.01 in0.3 mm
08:54 PM 74.7°F23.7°C 66.3°F19.1°C 75% 6.0 mph SSE9.7 kmh SSE 12.0 mph19.3 kmh 29.81 in1009.5 mb 0.00 in0.0 mm 0.00 in0.0 mm 0.01 in0.3 mm
08:56 PM 74.7°F23.7°C 66.6°F19.2°C 76% 9.0 mph SE14.5 kmh SE 12.0 mph19.3 kmh 29.81 in1009.5 mb 0.00 in0.0 mm 0.00 in0.0 mm 0.01 in0.3 mm
08:58 PM 74.6°F23.7°C 66.5°F19.2°C 76% 5.0 mph SE8.0 kmh SE 12.0 mph19.3 kmh 29.81 in1009.5 mb 0.00 in0.0 mm 0.00 in0.0 mm 0.01 in0.3 mm
09:00 PM 74.6°F23.7°C 66.5°F19.2°C 76% 5.0 mph SE8.0 kmh SE 12.0 mph19.3 kmh 29.81 in1009.5 mb 0.00 in0.0 mm 0.00 in0.0 mm 0.01 in0.3 mm
09:02 PM 74.6°F23.7°C 66.9°F19.4°C 77% 5.0 mph SSE8.0 kmh SSE 11.0 mph17.7 kmh 29.80 in1009.1 mb 0.00 in0.0 mm 0.00 in0.0 mm 0.01 in0.3 mm
09:04 PM 74.6°F23.7°C 66.9°F19.4°C 77% 3.0 mph SE4.8 kmh SE 11.0 mph17.7 kmh 29.79 in1008.8 mb 0.00 in0.0 mm 0.00 in0.0 mm 0.01 in0.3 mm
09:06 PM 74.6°F23.7°C 66.9°F19.4°C 77% 2.0 mph SE3.2 kmh SE 11.0 mph17.7 kmh 29.80 in1009.1 mb 0.00 in0.0 mm 0.00 in0.0 mm 0.01 in0.3 mm
09:08 PM 74.6°F23.7°C 66.9°F19.4°C 77% 4.0 mph S6.4 kmh S 11.0 mph17.7 kmh 29.80 in1009.1 mb 0.00 in0.0 mm 0.00 in0.0 mm 0.01 in0.3 mm
09:10 PM 74.7°F23.7°C 67.0°F19.4°C 77% 1.0 mph S1.6 kmh S 11.0 mph17.7 kmh 29.79 in1008.8 mb 0.00 in0.0 mm 0.00 in0.0 mm 0.01 in0.3 mm
09:12 PM 74.8°F23.8°C 66.7°F19.3°C 76% 3.0 mph S4.8 kmh S 11.0 mph17.7 kmh 29.79 in1008.8 mb 0.00 in0.0 mm 0.00 in0.0 mm 0.01 in0.3 mm
09:14 PM 75.0°F23.9°C 66.9°F19.4°C 76% 2.0 mph S3.2 kmh S 11.0 mph17.7 kmh 29.80 in1009.1 mb 0.00 in0.0 mm 0.00 in0.0 mm 0.01 in0.3 mm
09:16 PM 75.1°F23.9°C 67.0°F19.4°C 76% 1.0 mph SE1.6 kmh SE 11.0 mph17.7 kmh 29.80 in1009.1 mb 0.00 in0.0 mm 0.00 in0.0 mm 0.01 in0.3 mm
09:18 PM 75.2°F24.0°C 67.1°F19.5°C 76% 3.0 mph SSE4.8 kmh SSE 11.0 mph17.7 kmh 29.81 in1009.5 mb 0.00 in0.0 mm 0.00 in0.0 mm 0.01 in0.3 mm
09:20 PM 75.3°F24.1°C 67.2°F19.6°C 76% 1.0 mph SSE1.6 kmh SSE 11.0 mph17.7 kmh 29.82 in1009.8 mb 0.00 in0.0 mm 0.00 in0.0 mm 0.01 in0.3 mm
09:22 PM 75.4°F24.1°C 67.3°F19.6°C 76% 1.0 mph SSE1.6 kmh SSE 11.0 mph17.7 kmh 29.84 in1010.5 mb 0.00 in0.0 mm 0.00 in0.0 mm 0.01 in0.3 mm
09:24 PM 75.4°F24.1°C 67.3°F19.6°C 76% 4.0 mph SW6.4 kmh SW 11.0 mph17.7 kmh 29.85 in1010.8 mb 0.00 in0.0 mm 0.00 in0.0 mm 0.01 in0.3 mm
09:26 PM 75.6°F24.2°C 67.5°F19.7°C 76% 3.0 mph SW4.8 kmh SW 11.0 mph17.7 kmh 29.86 in1011.2 mb 0.00 in0.0 mm 0.00 in0.0 mm 0.01 in0.3 mm
09:28 PM 75.7°F24.3°C 67.6°F19.8°C 76% 9.0 mph WSW14.5 kmh WSW 11.0 mph17.7 kmh 29.86 in1011.2 mb 0.00 in0.0 mm 0.00 in0.0 mm 0.01 in0.3 mm
09:30 PM 75.7°F24.3°C 67.6°F19.8°C 76% 17.0 mph WNW27.4 kmh WNW 17.0 mph27.4 kmh 29.87 in1011.5 mb 0.00 in0.0 mm 0.00 in0.0 mm 0.01 in0.3 mm
09:32 PM 75.5°F24.2°C 67.8°F19.9°C 77% 8.0 mph WNW12.9 kmh WNW 17.0 mph27.4 kmh 29.87 in1011.5 mb 0.00 in0.0 mm 0.00 in0.0 mm 0.01 in0.3 mm
09:34 PM 75.2°F24.0°C 67.5°F19.7°C 77% 8.0 mph WSW12.9 kmh WSW 17.0 mph27.4 kmh 29.86 in1011.2 mb 0.00 in0.0 mm 0.00 in0.0 mm 0.01 in0.3 mm
09:36 PM 74.9°F23.8°C 67.2°F19.6°C 77% 11.0 mph WSW17.7 kmh WSW 17.0 mph27.4 kmh 29.86 in1011.2 mb 0.00 in0.0 mm 0.00 in0.0 mm 0.01 in0.3 mm
09:38 PM 74.8°F23.8°C 67.1°F19.5°C 77% 8.0 mph SW12.9 kmh SW 17.0 mph27.4 kmh 29.86 in1011.2 mb 0.00 in0.0 mm 0.00 in0.0 mm 0.01 in0.3 mm
09:40 PM 74.7°F23.7°C 67.4°F19.7°C 78% 3.0 mph SSW4.8 kmh SSW 17.0 mph27.4 kmh 29.85 in1010.8 mb 0.00 in0.0 mm 0.00 in0.0 mm 0.01 in0.3 mm
09:42 PM 74.7°F23.7°C 67.4°F19.7°C 78% 5.0 mph SSW8.0 kmh SSW 17.0 mph27.4 kmh 29.85 in1010.8 mb 0.00 in0.0 mm 0.00 in0.0 mm 0.01 in0.3 mm
09:44 PM 74.7°F23.7°C 67.4°F19.7°C 78% 7.0 mph WSW11.3 kmh WSW 17.0 mph27.4 kmh 29.85 in1010.8 mb 0.00 in0.0 mm 0.00 in0.0 mm 0.01 in0.3 mm
09:46 PM 74.7°F23.7°C 67.0°F19.4°C 77% 4.0 mph W6.4 kmh W 17.0 mph27.4 kmh 29.85 in1010.8 mb 0.00 in0.0 mm 0.00 in0.0 mm 0.01 in0.3 mm
09:48 PM 74.8°F23.8°C 67.1°F19.5°C 77% 13.0 mph W20.9 kmh W 17.0 mph27.4 kmh 29.85 in1010.8 mb 0.00 in0.0 mm 0.00 in0.0 mm 0.01 in0.3 mm
09:50 PM 74.9°F23.8°C 67.2°F19.6°C 77% 4.0 mph W6.4 kmh W 17.0 mph27.4 kmh 29.85 in1010.8 mb 0.00 in0.0 mm 0.00 in0.0 mm 0.01 in0.3 mm
09:52 PM 74.9°F23.8°C 66.8°F19.3°C 76% 8.0 mph WSW12.9 kmh WSW 17.0 mph27.4 kmh 29.85 in1010.8 mb 0.00 in0.0 mm 0.00 in0.0 mm 0.01 in0.3 mm
09:54 PM 75.0°F23.9°C 66.9°F19.4°C 76% 5.0 mph SW8.0 kmh SW 17.0 mph27.4 kmh 29.85 in1010.8 mb 0.00 in0.0 mm 0.00 in0.0 mm 0.01 in0.3 mm
09:56 PM 75.1°F23.9°C 67.0°F19.4°C 76% 4.0 mph SSW6.4 kmh SSW 17.0 mph27.4 kmh 29.85 in1010.8 mb 0.00 in0.0 mm 0.00 in0.0 mm 0.01 in0.3 mm
09:58 PM 75.2°F24.0°C 67.1°F19.5°C 76% 3.0 mph SSW4.8 kmh SSW 17.0 mph27.4 kmh 29.86 in1011.2 mb 0.00 in0.0 mm 0.00 in0.0 mm 0.01 in0.3 mm
10:00 PM 75.2°F24.0°C 67.1°F19.5°C 76% 6.0 mph SW9.7 kmh SW 17.0 mph27.4 kmh 29.86 in1011.2 mb 0.00 in0.0 mm 0.00 in0.0 mm 0.01 in0.3 mm
10:02 PM 75.3°F24.1°C 67.6°F19.8°C 77% 4.0 mph SW6.4 kmh SW 8.0 mph12.9 kmh 29.86 in1011.2 mb 0.00 in0.0 mm 0.00 in0.0 mm 0.01 in0.3 mm
10:04 PM 75.2°F24.0°C 67.5°F19.7°C 77% 5.0 mph SW8.0 kmh SW 9.0 mph14.5 kmh 29.86 in1011.2 mb 0.00 in0.0 mm 0.00 in0.0 mm 0.01 in0.3 mm
10:06 PM 75.2°F24.0°C 67.1°F19.5°C 76% 5.0 mph SSW8.0 kmh SSW 9.0 mph14.5 kmh 29.86 in1011.2 mb 0.00 in0.0 mm 0.00 in0.0 mm 0.01 in0.3 mm
10:08 PM 75.3°F24.1°C 67.6°F19.8°C 77% 5.0 mph SW8.0 kmh SW 9.0 mph14.5 kmh 29.86 in1011.2 mb 0.00 in0.0 mm 0.00 in0.0 mm 0.01 in0.3 mm
10:10 PM 75.2°F24.0°C 67.9°F19.9°C 78% 4.0 mph S6.4 kmh S 9.0 mph14.5 kmh 29.86 in1011.2 mb 0.00 in0.0 mm 0.00 in0.0 mm 0.01 in0.3 mm
10:12 PM 75.1°F23.9°C 67.8°F19.9°C 78% 6.0 mph WSW9.7 kmh WSW 10.0 mph16.1 kmh 29.86 in1011.2 mb 0.00 in0.0 mm 0.00 in0.0 mm 0.01 in0.3 mm
10:14 PM 74.9°F23.8°C 67.6°F19.8°C 78% 8.0 mph SW12.9 kmh SW 12.0 mph19.3 kmh 29.86 in1011.2 mb 0.00 in0.0 mm 0.00 in0.0 mm 0.01 in0.3 mm
10:16 PM 74.7°F23.7°C 67.4°F19.7°C 78% 5.0 mph SSW8.0 kmh SSW 12.0 mph19.3 kmh 29.86 in1011.2 mb 0.00 in0.0 mm 0.00 in0.0 mm 0.01 in0.3 mm
10:18 PM 74.6°F23.7°C 67.7°F19.8°C 79% 5.0 mph S8.0 kmh S 12.0 mph19.3 kmh 29.86 in1011.2 mb 0.00 in0.0 mm 0.00 in0.0 mm 0.01 in0.3 mm
10:20 PM 74.4°F23.6°C 67.5°F19.7°C 79% 8.0 mph S12.9 kmh S 12.0 mph19.3 kmh 29.85 in1010.8 mb 0.00 in0.0 mm 0.00 in0.0 mm 0.01 in0.3 mm
10:22 PM 74.3°F23.5°C 67.4°F19.7°C 79% 7.0 mph S11.3 kmh S 12.0 mph19.3 kmh 29.85 in1010.8 mb 0.00 in0.0 mm 0.00 in0.0 mm 0.01 in0.3 mm
10:24 PM 74.3°F23.5°C 67.4°F19.7°C 79% 5.0 mph S8.0 kmh S 12.0 mph19.3 kmh 29.85 in1010.8 mb 0.00 in0.0 mm 0.00 in0.0 mm 0.01 in0.3 mm
10:26 PM 74.2°F23.4°C 67.3°F19.6°C 79% 5.0 mph SW8.0 kmh SW 12.0 mph19.3 kmh 29.85 in1010.8 mb 0.00 in0.0 mm 0.00 in0.0 mm 0.01 in0.3 mm
10:28 PM 74.1°F23.4°C 67.5°F19.7°C 80% 5.0 mph SW8.0 kmh SW 13.0 mph20.9 kmh 29.86 in1011.2 mb 0.00 in0.0 mm 0.00 in0.0 mm 0.01 in0.3 mm
10:30 PM 74.0°F23.3°C 67.4°F19.7°C 80% 4.0 mph SW6.4 kmh SW 13.0 mph20.9 kmh 29.86 in1011.2 mb 0.00 in0.0 mm 0.00 in0.0 mm 0.01 in0.3 mm
10:32 PM 73.8°F23.2°C 67.6°F19.8°C 81% 4.0 mph SW6.4 kmh SW 10.0 mph16.1 kmh 29.86 in1011.2 mb 0.00 in0.0 mm 0.00 in0.0 mm 0.01 in0.3 mm
10:34 PM 73.8°F23.2°C 67.6°F19.8°C 81% 2.0 mph SSW3.2 kmh SSW 10.0 mph16.1 kmh 29.86 in1011.2 mb 0.00 in0.0 mm 0.00 in0.0 mm 0.01 in0.3 mm
10:36 PM 73.7°F23.2°C 67.5°F19.7°C 81% 5.0 mph SW8.0 kmh SW 10.0 mph16.1 kmh 29.86 in1011.2 mb 0.00 in0.0 mm 0.00 in0.0 mm 0.01 in0.3 mm
10:38 PM 73.6°F23.1°C 67.4°F19.7°C 81% 5.0 mph SW8.0 kmh SW 10.0 mph16.1 kmh 29.86 in1011.2 mb 0.00 in0.0 mm 0.00 in0.0 mm 0.01 in0.3 mm
10:40 PM 73.6°F23.1°C 67.4°F19.7°C 81% 6.0 mph SW9.7 kmh SW 10.0 mph16.1 kmh 29.87 in1011.5 mb 0.00 in0.0 mm 0.00 in0.0 mm 0.01 in0.3 mm
10:42 PM 73.6°F23.1°C 67.4°F19.7°C 81% 4.0 mph W6.4 kmh W 10.0 mph16.1 kmh 29.87 in1011.5 mb 0.00 in0.0 mm 0.00 in0.0 mm 0.01 in0.3 mm
10:44 PM 73.7°F23.2°C 67.2°F19.6°C 80% 1.0 mph WSW1.6 kmh WSW 11.0 mph17.7 kmh 29.88 in1011.9 mb 0.00 in0.0 mm 0.00 in0.0 mm 0.01 in0.3 mm
10:46 PM 73.7°F23.2°C 67.2°F19.6°C 80% 2.0 mph WSW3.2 kmh WSW 11.0 mph17.7 kmh 29.88 in1011.9 mb 0.00 in0.0 mm 0.00 in0.0 mm 0.01 in0.3 mm
10:48 PM 73.7°F23.2°C 67.2°F19.6°C 80% 3.0 mph W4.8 kmh W 11.0 mph17.7 kmh 29.88 in1011.9 mb 0.00 in0.0 mm 0.00 in0.0 mm 0.01 in0.3 mm
10:50 PM 73.7°F23.2°C 67.2°F19.6°C 80% 2.0 mph SW3.2 kmh SW 11.0 mph17.7 kmh 29.88 in1011.9 mb 0.00 in0.0 mm 0.00 in0.0 mm 0.01 in0.3 mm
10:52 PM 73.7°F23.2°C 67.5°F19.7°C 81% 4.0 mph WSW6.4 kmh WSW 11.0 mph17.7 kmh 29.87 in1011.5 mb 0.00 in0.0 mm 0.00 in0.0 mm 0.01 in0.3 mm
10:54 PM 73.6°F23.1°C 67.4°F19.7°C 81% 3.0 mph WSW4.8 kmh WSW 11.0 mph17.7 kmh 29.88 in1011.9 mb 0.00 in0.0 mm 0.00 in0.0 mm 0.01 in0.3 mm
10:56 PM 73.7°F23.2°C 67.5°F19.7°C 81% 1.0 mph SW1.6 kmh SW 11.0 mph17.7 kmh 29.87 in1011.5 mb 0.00 in0.0 mm 0.00 in0.0 mm 0.01 in0.3 mm
10:58 PM 73.6°F23.1°C 67.4°F19.7°C 81% 3.0 mph SW4.8 kmh SW 11.0 mph17.7 kmh 29.87 in1011.5 mb 0.00 in0.0 mm 0.00 in0.0 mm 0.01 in0.3 mm
11:00 PM 73.7°F23.2°C 67.5°F19.7°C 81% 4.0 mph SW6.4 kmh SW 4.0 mph6.4 kmh 29.88 in1011.9 mb 0.00 in0.0 mm 0.00 in0.0 mm 0.01 in0.3 mm
11:02 PM 73.7°F23.2°C 67.5°F19.7°C 81% 3.0 mph SW4.8 kmh SW 5.0 mph8.0 kmh 29.88 in1011.9 mb 0.00 in0.0 mm 0.00 in0.0 mm 0.01 in0.3 mm
11:04 PM 73.8°F23.2°C 67.6°F19.8°C 81% 3.0 mph SW4.8 kmh SW 5.0 mph8.0 kmh 29.88 in1011.9 mb 0.00 in0.0 mm 0.00 in0.0 mm 0.01 in0.3 mm
11:06 PM 73.7°F23.2°C 67.5°F19.7°C 81% 1.0 mph WSW1.6 kmh WSW 5.0 mph8.0 kmh 29.88 in1011.9 mb 0.00 in0.0 mm 0.00 in0.0 mm 0.01 in0.3 mm
11:08 PM 73.7°F23.2°C 67.5°F19.7°C 81% 2.0 mph SW3.2 kmh SW 5.0 mph8.0 kmh 29.88 in1011.9 mb 0.00 in0.0 mm 0.00 in0.0 mm 0.01 in0.3 mm
11:10 PM 73.6°F23.1°C 67.4°F19.7°C 81% 2.0 mph WSW3.2 kmh WSW 5.0 mph8.0 kmh 29.88 in1011.9 mb 0.00 in0.0 mm 0.00 in0.0 mm 0.01 in0.3 mm
11:12 PM 73.6°F23.1°C 67.4°F19.7°C 81% Calm Calm 5.0 mph8.0 kmh 29.87 in1011.5 mb 0.00 in0.0 mm 0.00 in0.0 mm 0.01 in0.3 mm
11:14 PM 73.5°F23.1°C 67.3°F19.6°C 81% 3.0 mph WSW4.8 kmh WSW 5.0 mph8.0 kmh 29.87 in1011.5 mb 0.00 in0.0 mm 0.00 in0.0 mm 0.01 in0.3 mm
11:16 PM 73.5°F23.1°C 67.7°F19.8°C 82% 1.0 mph WSW1.6 kmh WSW 5.0 mph8.0 kmh 29.87 in1011.5 mb 0.00 in0.0 mm 0.00 in0.0 mm 0.01 in0.3 mm
11:18 PM 73.5°F23.1°C 67.7°F19.8°C 82% 3.0 mph WSW4.8 kmh WSW 5.0 mph8.0 kmh 29.87 in1011.5 mb 0.00 in0.0 mm 0.00 in0.0 mm 0.01 in0.3 mm
11:20 PM 73.5°F23.1°C 67.7°F19.8°C 82% 1.0 mph WSW1.6 kmh WSW 5.0 mph8.0 kmh 29.87 in1011.5 mb 0.00 in0.0 mm 0.00 in0.0 mm 0.01 in0.3 mm
11:22 PM 73.4°F23.0°C 67.6°F19.8°C 82% 2.0 mph WSW3.2 kmh WSW 5.0 mph8.0 kmh 29.87 in1011.5 mb 0.00 in0.0 mm 0.00 in0.0 mm 0.01 in0.3 mm
11:24 PM 73.4°F23.0°C 67.6°F19.8°C 82% 4.0 mph W6.4 kmh W 6.0 mph9.7 kmh 29.87 in1011.5 mb 0.00 in0.0 mm 0.00 in0.0 mm 0.01 in0.3 mm
11:26 PM 73.3°F22.9°C 67.5°F19.7°C 82% 3.0 mph W4.8 kmh W 7.0 mph11.3 kmh 29.87 in1011.5 mb 0.00 in0.0 mm 0.00 in0.0 mm 0.01 in0.3 mm
11:28 PM 73.3°F22.9°C 67.8°F19.9°C 83% 2.0 mph W3.2 kmh W 7.0 mph11.3 kmh 29.88 in1011.9 mb 0.00 in0.0 mm 0.00 in0.0 mm 0.01 in0.3 mm
11:30 PM 73.2°F22.9°C 67.7°F19.8°C 83% 1.0 mph W1.6 kmh W 2.0 mph3.2 kmh 29.87 in1011.5 mb 0.00 in0.0 mm 0.00 in0.0 mm 0.01 in0.3 mm
11:32 PM 73.2°F22.9°C 67.7°F19.8°C 83% 1.0 mph WSW1.6 kmh WSW 3.0 mph4.8 kmh 29.87 in1011.5 mb 0.00 in0.0 mm 0.00 in0.0 mm 0.01 in0.3 mm
11:34 PM 73.1°F22.8°C 67.6°F19.8°C 83% 4.0 mph S6.4 kmh S 4.0 mph6.4 kmh 29.87 in1011.5 mb 0.00 in0.0 mm 0.00 in0.0 mm 0.01 in0.3 mm
11:36 PM 73.1°F22.8°C 67.6°F19.8°C 83% 4.0 mph SSE6.4 kmh SSE 5.0 mph8.0 kmh 29.86 in1011.2 mb 0.00 in0.0 mm 0.00 in0.0 mm 0.01 in0.3 mm
11:38 PM 73.0°F22.8°C 67.5°F19.7°C 83% 4.0 mph SSE6.4 kmh SSE 5.0 mph8.0 kmh 29.87 in1011.5 mb 0.00 in0.0 mm 0.00 in0.0 mm 0.01 in0.3 mm
11:40 PM 73.0°F22.8°C 67.9°F19.9°C 84% 5.0 mph S8.0 kmh S 5.0 mph8.0 kmh 29.87 in1011.5 mb 0.00 in0.0 mm 0.00 in0.0 mm 0.01 in0.3 mm
11:42 PM 72.9°F22.7°C 67.8°F19.9°C 84% 5.0 mph SW8.0 kmh SW 7.0 mph11.3 kmh 29.87 in1011.5 mb 0.00 in0.0 mm 0.00 in0.0 mm 0.01 in0.3 mm
11:44 PM 72.8°F22.7°C 67.7°F19.8°C 84% 3.0 mph S4.8 kmh S 7.0 mph11.3 kmh 29.87 in1011.5 mb 0.00 in0.0 mm 0.00 in0.0 mm 0.01 in0.3 mm
11:46 PM 72.6°F22.6°C 67.5°F19.7°C 84% 5.0 mph SSE8.0 kmh SSE 7.0 mph11.3 kmh 29.88 in1011.9 mb 0.00 in0.0 mm 0.00 in0.0 mm 0.01 in0.3 mm
11:48 PM 72.6°F22.6°C 67.8°F19.9°C 85% 3.0 mph SE4.8 kmh SE 7.0 mph11.3 kmh 29.88 in1011.9 mb 0.00 in0.0 mm 0.00 in0.0 mm 0.01 in0.3 mm
11:50 PM 72.5°F22.5°C 67.7°F19.8°C 85% 4.0 mph SE6.4 kmh SE 7.0 mph11.3 kmh 29.88 in1011.9 mb 0.01 in0.3 mm 0.30 in7.6 mm 0.02 in0.5 mm
11:52 PM 72.3°F22.4°C 67.9°F19.9°C 86% 4.0 mph NE6.4 kmh NE 7.0 mph11.3 kmh 29.88 in1011.9 mb 0.01 in0.3 mm 0.00 in0.0 mm 0.02 in0.5 mm
11:54 PM 72.2°F22.3°C 67.8°F19.9°C 86% 3.0 mph NE4.8 kmh NE 7.0 mph11.3 kmh 29.88 in1011.9 mb 0.01 in0.3 mm 0.00 in0.0 mm 0.02 in0.5 mm
11:56 PM 72.0°F22.2°C 67.9°F19.9°C 87% 2.0 mph N3.2 kmh N 7.0 mph11.3 kmh 29.88 in1011.9 mb 0.01 in0.3 mm 0.00 in0.0 mm 0.02 in0.5 mm
11:58 PM 71.9°F22.2°C 67.8°F19.9°C 87% 1.0 mph N1.6 kmh N 7.0 mph11.3 kmh 29.88 in1011.9 mb 0.01 in0.3 mm 0.00 in0.0 mm 0.02 in0.5 mm